<?xml version="1.0" encoding="UTF-8" standalone="no" ?>
<gpx xmlns="http://www.topografix.com/GPX/1/1" xmlns:xsi="http://www.w3.org/2001/XMLSchema-instance" xsi:schemaLocation="http://www.topografix.com/GPX/1/1 http://www.topografix.com/GPX/1/1/gpx.xsd" version="1.1" creator="VisuGPX - https://www.visugpx.com">
  <metadata>
    <name>entre les bords de Saone et Beaujolais</name>
    <desc><![CDATA[Vtt entre saone et les collines du Beaujolais]]></desc>
  </metadata>
  <trk>
    <name><![CDATA[9.2_trevoltienne_2008_01]]></name>
    <trkseg>
      <trkpt lat="45.9403" lon="4.78014">
        <ele>197.2075195</ele>
        <time>2008-09-21T06:11:55Z</time>
      </trkpt>
      <trkpt lat="45.94034" lon="4.77963">
        <ele>196.2463379</ele>
        <time>2008-09-21T06:12:11Z</time>
      </trkpt>
      <trkpt lat="45.94034" lon="4.7793">
        <ele>194.8043213</ele>
        <time>2008-09-21T06:12:18Z</time>
      </trkpt>
      <trkpt lat="45.94016" lon="4.7792">
        <ele>192.401123</ele>
        <time>2008-09-21T06:12:23Z</time>
      </trkpt>
      <trkpt lat="45.93985" lon="4.77931">
        <ele>188.0750732</ele>
        <time>2008-09-21T06:12:28Z</time>
      </trkpt>
      <trkpt lat="45.9391" lon="4.77988">
        <ele>179.9038086</ele>
        <time>2008-09-21T06:12:37Z</time>
      </trkpt>
      <trkpt lat="45.93902" lon="4.77996">
        <ele>178.942627</ele>
        <time>2008-09-21T06:12:38Z</time>
      </trkpt>
      <trkpt lat="45.93871" lon="4.78015">
        <ele>177.9812012</ele>
        <time>2008-09-21T06:12:44Z</time>
      </trkpt>
      <trkpt lat="45.93878" lon="4.77973">
        <ele>176.5393066</ele>
        <time>2008-09-21T06:12:50Z</time>
      </trkpt>
      <trkpt lat="45.93882" lon="4.77953">
        <ele>175.09729</ele>
        <time>2008-09-21T06:12:52Z</time>
      </trkpt>
      <trkpt lat="45.93888" lon="4.7792">
        <ele>174.1358643</ele>
        <time>2008-09-21T06:12:55Z</time>
      </trkpt>
      <trkpt lat="45.93908" lon="4.77852">
        <ele>171.732666</ele>
        <time>2008-09-21T06:13:01Z</time>
      </trkpt>
      <trkpt lat="45.93954" lon="4.77705">
        <ele>170.2906494</ele>
        <time>2008-09-21T06:13:14Z</time>
      </trkpt>
      <trkpt lat="45.9399" lon="4.77552">
        <ele>169.3294678</ele>
        <time>2008-09-21T06:13:28Z</time>
      </trkpt>
      <trkpt lat="45.94015" lon="4.77359">
        <ele>170.7713623</ele>
        <time>2008-09-21T06:13:46Z</time>
      </trkpt>
      <trkpt lat="45.94023" lon="4.77265">
        <ele>173.1746826</ele>
        <time>2008-09-21T06:13:59Z</time>
      </trkpt>
      <trkpt lat="45.94025" lon="4.7726">
        <ele>173.1746826</ele>
        <time>2008-09-21T06:14:01Z</time>
      </trkpt>
      <trkpt lat="45.94013" lon="4.77263">
        <ele>174.1358643</ele>
        <time>2008-09-21T06:14:10Z</time>
      </trkpt>
      <trkpt lat="45.94007" lon="4.77269">
        <ele>174.1358643</ele>
        <time>2008-09-21T06:14:18Z</time>
      </trkpt>
      <trkpt lat="45.9402" lon="4.77238">
        <ele>173.1746826</ele>
        <time>2008-09-21T06:14:26Z</time>
      </trkpt>
      <trkpt lat="45.94039" lon="4.77102">
        <ele>172.2132568</ele>
        <time>2008-09-21T06:14:44Z</time>
      </trkpt>
      <trkpt lat="45.94052" lon="4.77">
        <ele>171.732666</ele>
        <time>2008-09-21T06:14:56Z</time>
      </trkpt>
      <trkpt lat="45.94054" lon="4.76951">
        <ele>173.1746826</ele>
        <time>2008-09-21T06:15:04Z</time>
      </trkpt>
      <trkpt lat="45.94042" lon="4.76955">
        <ele>173.6552734</ele>
        <time>2008-09-21T06:15:08Z</time>
      </trkpt>
      <trkpt lat="45.94025" lon="4.76984">
        <ele>173.1746826</ele>
        <time>2008-09-21T06:15:16Z</time>
      </trkpt>
      <trkpt lat="45.93902" lon="4.76851">
        <ele>169.3294678</ele>
        <time>2008-09-21T06:15:44Z</time>
      </trkpt>
      <trkpt lat="45.93791" lon="4.76621">
        <ele>169.3294678</ele>
        <time>2008-09-21T06:16:06Z</time>
      </trkpt>
      <trkpt lat="45.93743" lon="4.76494">
        <ele>169.8100586</ele>
        <time>2008-09-21T06:16:21Z</time>
      </trkpt>
      <trkpt lat="45.93745" lon="4.7647">
        <ele>171.2520752</ele>
        <time>2008-09-21T06:16:26Z</time>
      </trkpt>
      <trkpt lat="45.93741" lon="4.76459">
        <ele>170.2906494</ele>
        <time>2008-09-21T06:16:56Z</time>
      </trkpt>
      <trkpt lat="45.93742" lon="4.7646">
        <ele>171.2520752</ele>
        <time>2008-09-21T06:17:14Z</time>
      </trkpt>
      <trkpt lat="45.93728" lon="4.7646">
        <ele>171.2520752</ele>
        <time>2008-09-21T06:17:23Z</time>
      </trkpt>
      <trkpt lat="45.93724" lon="4.76449">
        <ele>170.2906494</ele>
        <time>2008-09-21T06:17:25Z</time>
      </trkpt>
      <trkpt lat="45.93691" lon="4.76342">
        <ele>170.2906494</ele>
        <time>2008-09-21T06:17:39Z</time>
      </trkpt>
      <trkpt lat="45.93658" lon="4.76242">
        <ele>170.2906494</ele>
        <time>2008-09-21T06:17:53Z</time>
      </trkpt>
      <trkpt lat="45.93587" lon="4.76033">
        <ele>169.8100586</ele>
        <time>2008-09-21T06:18:18Z</time>
      </trkpt>
      <trkpt lat="45.93497" lon="4.75714">
        <ele>168.8487549</ele>
        <time>2008-09-21T06:18:54Z</time>
      </trkpt>
      <trkpt lat="45.93542" lon="4.75538">
        <ele>169.3294678</ele>
        <time>2008-09-21T06:19:12Z</time>
      </trkpt>
      <trkpt lat="45.93611" lon="4.75213">
        <ele>169.8100586</ele>
        <time>2008-09-21T06:19:45Z</time>
      </trkpt>
      <trkpt lat="45.9368" lon="4.75056">
        <ele>169.3294678</ele>
        <time>2008-09-21T06:20:03Z</time>
      </trkpt>
      <trkpt lat="45.93768" lon="4.74886">
        <ele>169.3294678</ele>
        <time>2008-09-21T06:20:24Z</time>
      </trkpt>
      <trkpt lat="45.93907" lon="4.74628">
        <ele>170.2906494</ele>
        <time>2008-09-21T06:20:57Z</time>
      </trkpt>
      <trkpt lat="45.93915" lon="4.746">
        <ele>169.8100586</ele>
        <time>2008-09-21T06:21:00Z</time>
      </trkpt>
      <trkpt lat="45.93927" lon="4.74425">
        <ele>169.8100586</ele>
        <time>2008-09-21T06:21:18Z</time>
      </trkpt>
      <trkpt lat="45.93938" lon="4.73919">
        <ele>170.2906494</ele>
        <time>2008-09-21T06:22:08Z</time>
      </trkpt>
      <trkpt lat="45.93963" lon="4.73678">
        <ele>170.7713623</ele>
        <time>2008-09-21T06:22:32Z</time>
      </trkpt>
      <trkpt lat="45.94023" lon="4.73488">
        <ele>171.732666</ele>
        <time>2008-09-21T06:22:53Z</time>
      </trkpt>
      <trkpt lat="45.94099" lon="4.73364">
        <ele>171.2520752</ele>
        <time>2008-09-21T06:23:10Z</time>
      </trkpt>
      <trkpt lat="45.94206" lon="4.73227">
        <ele>171.2520752</ele>
        <time>2008-09-21T06:23:32Z</time>
      </trkpt>
      <trkpt lat="45.94449" lon="4.73018">
        <ele>172.2132568</ele>
        <time>2008-09-21T06:24:17Z</time>
      </trkpt>
      <trkpt lat="45.94472" lon="4.73">
        <ele>171.732666</ele>
        <time>2008-09-21T06:24:22Z</time>
      </trkpt>
      <trkpt lat="45.94525" lon="4.72999">
        <ele>171.732666</ele>
        <time>2008-09-21T06:24:32Z</time>
      </trkpt>
      <trkpt lat="45.94562" lon="4.73012">
        <ele>171.2520752</ele>
        <time>2008-09-21T06:24:41Z</time>
      </trkpt>
      <trkpt lat="45.9457" lon="4.73056">
        <ele>172.2132568</ele>
        <time>2008-09-21T06:24:49Z</time>
      </trkpt>
      <trkpt lat="45.94528" lon="4.73059">
        <ele>172.6939697</ele>
        <time>2008-09-21T06:24:59Z</time>
      </trkpt>
      <trkpt lat="45.94471" lon="4.73025">
        <ele>176.0585938</ele>
        <time>2008-09-21T06:25:13Z</time>
      </trkpt>
      <trkpt lat="45.94466" lon="4.73003">
        <ele>177.0200195</ele>
        <time>2008-09-21T06:25:17Z</time>
      </trkpt>
      <trkpt lat="45.94444" lon="4.72883">
        <ele>180.3845215</ele>
        <time>2008-09-21T06:25:36Z</time>
      </trkpt>
      <trkpt lat="45.94427" lon="4.72767">
        <ele>176.0585938</ele>
        <time>2008-09-21T06:25:49Z</time>
      </trkpt>
      <trkpt lat="45.94342" lon="4.72368">
        <ele>174.1358643</ele>
        <time>2008-09-21T06:26:29Z</time>
      </trkpt>
      <trkpt lat="45.94228" lon="4.72129">
        <ele>177.0200195</ele>
        <time>2008-09-21T06:26:57Z</time>
      </trkpt>
      <trkpt lat="45.94224" lon="4.72121">
        <ele>177.0200195</ele>
        <time>2008-09-21T06:26:58Z</time>
      </trkpt>
      <trkpt lat="45.94204" lon="4.72081">
        <ele>179.9038086</ele>
        <time>2008-09-21T06:27:04Z</time>
      </trkpt>
      <trkpt lat="45.94201" lon="4.72075">
        <ele>180.3845215</ele>
        <time>2008-09-21T06:27:05Z</time>
      </trkpt>
      <trkpt lat="45.94152" lon="4.71969">
        <ele>176.5393066</ele>
        <time>2008-09-21T06:27:19Z</time>
      </trkpt>
      <trkpt lat="45.94155" lon="4.71925">
        <ele>173.6552734</ele>
        <time>2008-09-21T06:27:23Z</time>
      </trkpt>
      <trkpt lat="45.94205" lon="4.71893">
        <ele>173.1746826</ele>
        <time>2008-09-21T06:27:30Z</time>
      </trkpt>
      <trkpt lat="45.94249" lon="4.71908">
        <ele>173.6552734</ele>
        <time>2008-09-21T06:27:36Z</time>
      </trkpt>
      <trkpt lat="45.94278" lon="4.71913">
        <ele>174.1358643</ele>
        <time>2008-09-21T06:27:40Z</time>
      </trkpt>
      <trkpt lat="45.94394" lon="4.71829">
        <ele>174.1358643</ele>
        <time>2008-09-21T06:27:58Z</time>
      </trkpt>
      <trkpt lat="45.9451" lon="4.71751">
        <ele>174.1358643</ele>
        <time>2008-09-21T06:28:15Z</time>
      </trkpt>
      <trkpt lat="45.94647" lon="4.71678">
        <ele>175.09729</ele>
        <time>2008-09-21T06:28:35Z</time>
      </trkpt>
      <trkpt lat="45.94778" lon="4.71625">
        <ele>176.5393066</ele>
        <time>2008-09-21T06:28:56Z</time>
      </trkpt>
      <trkpt lat="45.94846" lon="4.71601">
        <ele>179.4232178</ele>
        <time>2008-09-21T06:29:08Z</time>
      </trkpt>
      <trkpt lat="45.94862" lon="4.71595">
        <ele>179.4232178</ele>
        <time>2008-09-21T06:29:11Z</time>
      </trkpt>
      <trkpt lat="45.94936" lon="4.71576">
        <ele>182.7878418</ele>
        <time>2008-09-21T06:29:24Z</time>
      </trkpt>
      <trkpt lat="45.94971" lon="4.71515">
        <ele>185.1911621</ele>
        <time>2008-09-21T06:29:34Z</time>
      </trkpt>
      <trkpt lat="45.94973" lon="4.715">
        <ele>185.1911621</ele>
        <time>2008-09-21T06:29:36Z</time>
      </trkpt>
      <trkpt lat="45.94987" lon="4.71444">
        <ele>186.1524658</ele>
        <time>2008-09-21T06:29:46Z</time>
      </trkpt>
      <trkpt lat="45.94974" lon="4.71395">
        <ele>187.5943604</ele>
        <time>2008-09-21T06:29:53Z</time>
      </trkpt>
      <trkpt lat="45.94975" lon="4.71382">
        <ele>188.5557861</ele>
        <time>2008-09-21T06:29:55Z</time>
      </trkpt>
      <trkpt lat="45.94974" lon="4.71357">
        <ele>189.5169678</ele>
        <time>2008-09-21T06:29:59Z</time>
      </trkpt>
      <trkpt lat="45.94964" lon="4.71332">
        <ele>190.4783936</ele>
        <time>2008-09-21T06:30:04Z</time>
      </trkpt>
      <trkpt lat="45.94934" lon="4.71297">
        <ele>193.8430176</ele>
        <time>2008-09-21T06:30:13Z</time>
      </trkpt>
      <trkpt lat="45.94931" lon="4.71293">
        <ele>193.8430176</ele>
        <time>2008-09-21T06:30:14Z</time>
      </trkpt>
      <trkpt lat="45.94938" lon="4.71231">
        <ele>196.7269287</ele>
        <time>2008-09-21T06:30:27Z</time>
      </trkpt>
      <trkpt lat="45.94958" lon="4.71213">
        <ele>200.0916748</ele>
        <time>2008-09-21T06:30:34Z</time>
      </trkpt>
      <trkpt lat="45.94961" lon="4.71211">
        <ele>200.0916748</ele>
        <time>2008-09-21T06:30:35Z</time>
      </trkpt>
      <trkpt lat="45.94982" lon="4.71195">
        <ele>202.494873</ele>
        <time>2008-09-21T06:30:43Z</time>
      </trkpt>
      <trkpt lat="45.95009" lon="4.71175">
        <ele>205.3787842</ele>
        <time>2008-09-21T06:30:53Z</time>
      </trkpt>
      <trkpt lat="45.95017" lon="4.71169">
        <ele>207.3013916</ele>
        <time>2008-09-21T06:30:56Z</time>
      </trkpt>
      <trkpt lat="45.95044" lon="4.71136">
        <ele>210.6660156</ele>
        <time>2008-09-21T06:31:08Z</time>
      </trkpt>
      <trkpt lat="45.95067" lon="4.71091">
        <ele>214.0306396</ele>
        <time>2008-09-21T06:31:22Z</time>
      </trkpt>
      <trkpt lat="45.95083" lon="4.71059">
        <ele>216.9146729</ele>
        <time>2008-09-21T06:31:33Z</time>
      </trkpt>
      <trkpt lat="45.95086" lon="4.71049">
        <ele>218.8372803</ele>
        <time>2008-09-21T06:31:36Z</time>
      </trkpt>
      <trkpt lat="45.95106" lon="4.71006">
        <ele>222.2017822</ele>
        <time>2008-09-21T06:31:50Z</time>
      </trkpt>
      <trkpt lat="45.95123" lon="4.70956">
        <ele>225.5665283</ele>
        <time>2008-09-21T06:32:05Z</time>
      </trkpt>
      <trkpt lat="45.95131" lon="4.70923">
        <ele>227.9697266</ele>
        <time>2008-09-21T06:32:14Z</time>
      </trkpt>
      <trkpt lat="45.95139" lon="4.70895">
        <ele>231.3343506</ele>
        <time>2008-09-21T06:32:22Z</time>
      </trkpt>
      <trkpt lat="45.95139" lon="4.70892">
        <ele>231.8149414</ele>
        <time>2008-09-21T06:32:23Z</time>
      </trkpt>
      <trkpt lat="45.95151" lon="4.70845">
        <ele>234.6990967</ele>
        <time>2008-09-21T06:32:36Z</time>
      </trkpt>
      <trkpt lat="45.95152" lon="4.70842">
        <ele>235.1796875</ele>
        <time>2008-09-21T06:32:37Z</time>
      </trkpt>
      <trkpt lat="45.9515" lon="4.70808">
        <ele>238.0635986</ele>
        <time>2008-09-21T06:32:46Z</time>
      </trkpt>
      <trkpt lat="45.95149" lon="4.70801">
        <ele>239.0249023</ele>
        <time>2008-09-21T06:32:48Z</time>
      </trkpt>
      <trkpt lat="45.95156" lon="4.70796">
        <ele>239.5054932</ele>
        <time>2008-09-21T06:32:52Z</time>
      </trkpt>
      <trkpt lat="45.95207" lon="4.70804">
        <ele>240.9476318</ele>
        <time>2008-09-21T06:33:07Z</time>
      </trkpt>
      <trkpt lat="45.9531" lon="4.70816">
        <ele>239.0249023</ele>
        <time>2008-09-21T06:33:29Z</time>
      </trkpt>
      <trkpt lat="45.95403" lon="4.70827">
        <ele>237.5828857</ele>
        <time>2008-09-21T06:33:47Z</time>
      </trkpt>
      <trkpt lat="45.95408" lon="4.70848">
        <ele>236.1409912</ele>
        <time>2008-09-21T06:33:51Z</time>
      </trkpt>
      <trkpt lat="45.95404" lon="4.70887">
        <ele>230.3730469</ele>
        <time>2008-09-21T06:33:55Z</time>
      </trkpt>
      <trkpt lat="45.95403" lon="4.70896">
        <ele>229.4117432</ele>
        <time>2008-09-21T06:33:56Z</time>
      </trkpt>
      <trkpt lat="45.95418" lon="4.70911">
        <ele>226.527832</ele>
        <time>2008-09-21T06:34:03Z</time>
      </trkpt>
      <trkpt lat="45.95426" lon="4.70911">
        <ele>226.0471191</ele>
        <time>2008-09-21T06:34:05Z</time>
      </trkpt>
      <trkpt lat="45.95503" lon="4.70905">
        <ele>228.4504395</ele>
        <time>2008-09-21T06:34:23Z</time>
      </trkpt>
      <trkpt lat="45.95568" lon="4.70899">
        <ele>231.8149414</ele>
        <time>2008-09-21T06:34:39Z</time>
      </trkpt>
      <trkpt lat="45.95572" lon="4.70899">
        <ele>231.8149414</ele>
        <time>2008-09-21T06:34:40Z</time>
      </trkpt>
      <trkpt lat="45.95622" lon="4.70891">
        <ele>234.2183838</ele>
        <time>2008-09-21T06:34:55Z</time>
      </trkpt>
      <trkpt lat="45.95663" lon="4.70886">
        <ele>234.6990967</ele>
        <time>2008-09-21T06:35:07Z</time>
      </trkpt>
      <trkpt lat="45.95655" lon="4.70856">
        <ele>237.5828857</ele>
        <time>2008-09-21T06:35:17Z</time>
      </trkpt>
      <trkpt lat="45.95655" lon="4.70791">
        <ele>240.9476318</ele>
        <time>2008-09-21T06:35:33Z</time>
      </trkpt>
      <trkpt lat="45.95661" lon="4.70722">
        <ele>243.831543</ele>
        <time>2008-09-21T06:35:49Z</time>
      </trkpt>
      <trkpt lat="45.95671" lon="4.70637">
        <ele>247.1960449</ele>
        <time>2008-09-21T06:36:07Z</time>
      </trkpt>
      <trkpt lat="45.95675" lon="4.70602">
        <ele>249.5994873</ele>
        <time>2008-09-21T06:36:15Z</time>
      </trkpt>
      <trkpt lat="45.95668" lon="4.7051">
        <ele>256.8093262</ele>
        <time>2008-09-21T06:36:42Z</time>
      </trkpt>
      <trkpt lat="45.95641" lon="4.70411">
        <ele>265.4613037</ele>
        <time>2008-09-21T06:37:23Z</time>
      </trkpt>
      <trkpt lat="45.9563" lon="4.70388">
        <ele>268.8258057</ele>
        <time>2008-09-21T06:37:35Z</time>
      </trkpt>
      <trkpt lat="45.95623" lon="4.70375">
        <ele>272.1904297</ele>
        <time>2008-09-21T06:37:42Z</time>
      </trkpt>
      <trkpt lat="45.95622" lon="4.70373">
        <ele>272.6711426</ele>
        <time>2008-09-21T06:37:43Z</time>
      </trkpt>
      <trkpt lat="45.95584" lon="4.70292">
        <ele>281.8035889</ele>
        <time>2008-09-21T06:38:24Z</time>
      </trkpt>
      <trkpt lat="45.95584" lon="4.70289">
        <ele>281.8035889</ele>
        <time>2008-09-21T06:38:25Z</time>
      </trkpt>
      <trkpt lat="45.95586" lon="4.70243">
        <ele>285.1682129</ele>
        <time>2008-09-21T06:38:42Z</time>
      </trkpt>
      <trkpt lat="45.95586" lon="4.70187">
        <ele>288.532959</ele>
        <time>2008-09-21T06:39:01Z</time>
      </trkpt>
      <trkpt lat="45.95608" lon="4.69974">
        <ele>304.3946533</ele>
        <time>2008-09-21T06:40:16Z</time>
      </trkpt>
      <trkpt lat="45.9561" lon="4.69964">
        <ele>305.8366699</ele>
        <time>2008-09-21T06:40:19Z</time>
      </trkpt>
      <trkpt lat="45.95615" lon="4.69926">
        <ele>309.2011719</ele>
        <time>2008-09-21T06:40:31Z</time>
      </trkpt>
      <trkpt lat="45.95622" lon="4.69881">
        <ele>314.9691162</ele>
        <time>2008-09-21T06:40:47Z</time>
      </trkpt>
      <trkpt lat="45.95628" lon="4.69852">
        <ele>318.3336182</ele>
        <time>2008-09-21T06:41:01Z</time>
      </trkpt>
      <trkpt lat="45.95636" lon="4.69812">
        <ele>321.6983643</ele>
        <time>2008-09-21T06:41:19Z</time>
      </trkpt>
      <trkpt lat="45.95643" lon="4.69781">
        <ele>324.5822754</ele>
        <time>2008-09-21T06:41:33Z</time>
      </trkpt>
      <trkpt lat="45.95664" lon="4.69686">
        <ele>331.3115234</ele>
        <time>2008-09-21T06:42:03Z</time>
      </trkpt>
      <trkpt lat="45.95663" lon="4.69631">
        <ele>330.8309326</ele>
        <time>2008-09-21T06:42:15Z</time>
      </trkpt>
      <trkpt lat="45.95643" lon="4.6962">
        <ele>331.7921143</ele>
        <time>2008-09-21T06:42:21Z</time>
      </trkpt>
      <trkpt lat="45.95649" lon="4.69583">
        <ele>330.3502197</ele>
        <time>2008-09-21T06:42:27Z</time>
      </trkpt>
      <trkpt lat="45.95674" lon="4.69515">
        <ele>326.0241699</ele>
        <time>2008-09-21T06:42:36Z</time>
      </trkpt>
      <trkpt lat="45.95676" lon="4.6951">
        <ele>325.5435791</ele>
        <time>2008-09-21T06:42:37Z</time>
      </trkpt>
      <trkpt lat="45.95678" lon="4.69503">
        <ele>325.0629883</ele>
        <time>2008-09-21T06:42:39Z</time>
      </trkpt>
      <trkpt lat="45.95653" lon="4.69437">
        <ele>322.1789551</ele>
        <time>2008-09-21T06:42:48Z</time>
      </trkpt>
      <trkpt lat="45.95586" lon="4.69342">
        <ele>319.2950439</ele>
        <time>2008-09-21T06:43:00Z</time>
      </trkpt>
      <trkpt lat="45.95539" lon="4.69271">
        <ele>314.0078125</ele>
        <time>2008-09-21T06:43:08Z</time>
      </trkpt>
      <trkpt lat="45.95523" lon="4.6924">
        <ele>310.1624756</ele>
        <time>2008-09-21T06:43:11Z</time>
      </trkpt>
      <trkpt lat="45.9551" lon="4.69217">
        <ele>308.2398682</ele>
        <time>2008-09-21T06:43:13Z</time>
      </trkpt>
      <trkpt lat="45.95483" lon="4.69173">
        <ele>304.3946533</ele>
        <time>2008-09-21T06:43:17Z</time>
      </trkpt>
      <trkpt lat="45.9547" lon="4.69152">
        <ele>304.3946533</ele>
        <time>2008-09-21T06:43:19Z</time>
      </trkpt>
      <trkpt lat="45.95462" lon="4.6913">
        <ele>304.3946533</ele>
        <time>2008-09-21T06:43:21Z</time>
      </trkpt>
      <trkpt lat="45.95435" lon="4.6909">
        <ele>303.9139404</ele>
        <time>2008-09-21T06:43:26Z</time>
      </trkpt>
      <trkpt lat="45.95383" lon="4.69059">
        <ele>303.9139404</ele>
        <time>2008-09-21T06:43:34Z</time>
      </trkpt>
      <trkpt lat="45.95326" lon="4.69053">
        <ele>307.2785645</ele>
        <time>2008-09-21T06:43:44Z</time>
      </trkpt>
      <trkpt lat="45.95321" lon="4.69053">
        <ele>307.2785645</ele>
        <time>2008-09-21T06:43:45Z</time>
      </trkpt>
      <trkpt lat="45.95299" lon="4.69053">
        <ele>308.2398682</ele>
        <time>2008-09-21T06:43:51Z</time>
      </trkpt>
      <trkpt lat="45.95289" lon="4.69052">
        <ele>309.2011719</ele>
        <time>2008-09-21T06:43:53Z</time>
      </trkpt>
      <trkpt lat="45.95263" lon="4.69058">
        <ele>310.6430664</ele>
        <time>2008-09-21T06:43:59Z</time>
      </trkpt>
      <trkpt lat="45.95259" lon="4.69059">
        <ele>311.6044922</ele>
        <time>2008-09-21T06:44:00Z</time>
      </trkpt>
      <trkpt lat="45.95232" lon="4.6906">
        <ele>311.6044922</ele>
        <time>2008-09-21T06:44:06Z</time>
      </trkpt>
      <trkpt lat="45.9522" lon="4.69056">
        <ele>313.0465088</ele>
        <time>2008-09-21T06:44:09Z</time>
      </trkpt>
      <trkpt lat="45.95207" lon="4.69052">
        <ele>314.9691162</ele>
        <time>2008-09-21T06:44:12Z</time>
      </trkpt>
      <trkpt lat="45.95187" lon="4.69029">
        <ele>317.8530273</ele>
        <time>2008-09-21T06:44:18Z</time>
      </trkpt>
      <trkpt lat="45.9517" lon="4.69008">
        <ele>319.2950439</ele>
        <time>2008-09-21T06:44:23Z</time>
      </trkpt>
      <trkpt lat="45.95121" lon="4.6895">
        <ele>319.7756348</ele>
        <time>2008-09-21T06:44:37Z</time>
      </trkpt>
      <trkpt lat="45.9506" lon="4.68903">
        <ele>323.1403809</ele>
        <time>2008-09-21T06:44:53Z</time>
      </trkpt>
      <trkpt lat="45.95" lon="4.68828">
        <ele>320.2563477</ele>
        <time>2008-09-21T06:45:07Z</time>
      </trkpt>
      <trkpt lat="45.94995" lon="4.68821">
        <ele>319.7756348</ele>
        <time>2008-09-21T06:45:08Z</time>
      </trkpt>
      <trkpt lat="45.94988" lon="4.68796">
        <ele>320.2563477</ele>
        <time>2008-09-21T06:45:11Z</time>
      </trkpt>
      <trkpt lat="45.94985" lon="4.68779">
        <ele>320.2563477</ele>
        <time>2008-09-21T06:45:13Z</time>
      </trkpt>
      <trkpt lat="45.95004" lon="4.6862">
        <ele>326.9855957</ele>
        <time>2008-09-21T06:45:37Z</time>
      </trkpt>
      <trkpt lat="45.9499" lon="4.68604">
        <ele>328.4276123</ele>
        <time>2008-09-21T06:45:42Z</time>
      </trkpt>
      <trkpt lat="45.94931" lon="4.68608">
        <ele>331.3115234</ele>
        <time>2008-09-21T06:45:57Z</time>
      </trkpt>
      <trkpt lat="45.94863" lon="4.68602">
        <ele>333.7147217</ele>
        <time>2008-09-21T06:46:15Z</time>
      </trkpt>
      <trkpt lat="45.948" lon="4.68533">
        <ele>331.3115234</ele>
        <time>2008-09-21T06:46:30Z</time>
      </trkpt>
      <trkpt lat="45.94778" lon="4.68514">
        <ele>330.3502197</ele>
        <time>2008-09-21T06:46:34Z</time>
      </trkpt>
      <trkpt lat="45.94746" lon="4.68468">
        <ele>326.5048828</ele>
        <time>2008-09-21T06:46:40Z</time>
      </trkpt>
      <trkpt lat="45.94732" lon="4.68452">
        <ele>325.5435791</ele>
        <time>2008-09-21T06:46:42Z</time>
      </trkpt>
      <trkpt lat="45.94697" lon="4.68418">
        <ele>322.659668</ele>
        <time>2008-09-21T06:46:47Z</time>
      </trkpt>
      <trkpt lat="45.94675" lon="4.68404">
        <ele>320.2563477</ele>
        <time>2008-09-21T06:46:50Z</time>
      </trkpt>
      <trkpt lat="45.94651" lon="4.68392">
        <ele>316.8917236</ele>
        <time>2008-09-21T06:46:53Z</time>
      </trkpt>
      <trkpt lat="45.94616" lon="4.68372">
        <ele>313.0465088</ele>
        <time>2008-09-21T06:46:57Z</time>
      </trkpt>
      <trkpt lat="45.9459" lon="4.68356">
        <ele>309.6818848</ele>
        <time>2008-09-21T06:47:00Z</time>
      </trkpt>
      <trkpt lat="45.94563" lon="4.68339">
        <ele>306.3172607</ele>
        <time>2008-09-21T06:47:03Z</time>
      </trkpt>
      <trkpt lat="45.94546" lon="4.68323">
        <ele>304.3946533</ele>
        <time>2008-09-21T06:47:05Z</time>
      </trkpt>
      <trkpt lat="45.94525" lon="4.6829">
        <ele>300.5493164</ele>
        <time>2008-09-21T06:47:08Z</time>
      </trkpt>
      <trkpt lat="45.94518" lon="4.6828">
        <ele>299.1072998</ele>
        <time>2008-09-21T06:47:09Z</time>
      </trkpt>
      <trkpt lat="45.94493" lon="4.68258">
        <ele>294.7813721</ele>
        <time>2008-09-21T06:47:12Z</time>
      </trkpt>
      <trkpt lat="45.94483" lon="4.68254">
        <ele>294.7813721</ele>
        <time>2008-09-21T06:47:13Z</time>
      </trkpt>
      <trkpt lat="45.94401" lon="4.68219">
        <ele>292.8587646</ele>
        <time>2008-09-21T06:47:23Z</time>
      </trkpt>
      <trkpt lat="45.94322" lon="4.6822">
        <ele>291.8974609</ele>
        <time>2008-09-21T06:47:36Z</time>
      </trkpt>
      <trkpt lat="45.94276" lon="4.68182">
        <ele>291.416748</ele>
        <time>2008-09-21T06:47:46Z</time>
      </trkpt>
      <trkpt lat="45.94192" lon="4.68102">
        <ele>289.9748535</ele>
        <time>2008-09-21T06:48:02Z</time>
      </trkpt>
      <trkpt lat="45.94114" lon="4.68085">
        <ele>286.6102295</ele>
        <time>2008-09-21T06:48:13Z</time>
      </trkpt>
      <trkpt lat="45.94051" lon="4.68086">
        <ele>283.2456055</ele>
        <time>2008-09-21T06:48:21Z</time>
      </trkpt>
      <trkpt lat="45.93979" lon="4.68086">
        <ele>283.2456055</ele>
        <time>2008-09-21T06:48:31Z</time>
      </trkpt>
      <trkpt lat="45.9396" lon="4.68076">
        <ele>283.7261963</ele>
        <time>2008-09-21T06:48:35Z</time>
      </trkpt>
      <trkpt lat="45.93895" lon="4.67978">
        <ele>280.3616943</ele>
        <time>2008-09-21T06:48:52Z</time>
      </trkpt>
      <trkpt lat="45.93848" lon="4.67923">
        <ele>279.4002686</ele>
        <time>2008-09-21T06:49:02Z</time>
      </trkpt>
      <trkpt lat="45.93764" lon="4.67862">
        <ele>277.4776611</ele>
        <time>2008-09-21T06:49:17Z</time>
      </trkpt>
      <trkpt lat="45.93712" lon="4.67822">
        <ele>275.5550537</ele>
        <time>2008-09-21T06:49:27Z</time>
      </trkpt>
      <trkpt lat="45.93658" lon="4.67806">
        <ele>276.0356445</ele>
        <time>2008-09-21T06:49:37Z</time>
      </trkpt>
      <trkpt lat="45.93643" lon="4.67766">
        <ele>276.0356445</ele>
        <time>2008-09-21T06:49:44Z</time>
      </trkpt>
      <trkpt lat="45.93646" lon="4.67742">
        <ele>277.4776611</ele>
        <time>2008-09-21T06:49:48Z</time>
      </trkpt>
      <trkpt lat="45.93643" lon="4.67732">
        <ele>277.958252</ele>
        <time>2008-09-21T06:49:50Z</time>
      </trkpt>
      <trkpt lat="45.93634" lon="4.67723">
        <ele>277.958252</ele>
        <time>2008-09-21T06:49:53Z</time>
      </trkpt>
      <trkpt lat="45.93621" lon="4.67715">
        <ele>278.4389648</ele>
        <time>2008-09-21T06:49:56Z</time>
      </trkpt>
      <trkpt lat="45.93608" lon="4.67711">
        <ele>278.9196777</ele>
        <time>2008-09-21T06:49:59Z</time>
      </trkpt>
      <trkpt lat="45.93564" lon="4.67708">
        <ele>278.9196777</ele>
        <time>2008-09-21T06:50:09Z</time>
      </trkpt>
      <trkpt lat="45.93485" lon="4.67663">
        <ele>279.8808594</ele>
        <time>2008-09-21T06:50:27Z</time>
      </trkpt>
      <trkpt lat="45.93327" lon="4.67562">
        <ele>285.1682129</ele>
        <time>2008-09-21T06:51:10Z</time>
      </trkpt>
      <trkpt lat="45.93208" lon="4.67499">
        <ele>286.6102295</ele>
        <time>2008-09-21T06:51:42Z</time>
      </trkpt>
      <trkpt lat="45.93129" lon="4.6748">
        <ele>288.532959</ele>
        <time>2008-09-21T06:52:00Z</time>
      </trkpt>
      <trkpt lat="45.93109" lon="4.67466">
        <ele>291.8974609</ele>
        <time>2008-09-21T06:52:07Z</time>
      </trkpt>
      <trkpt lat="45.93088" lon="4.67436">
        <ele>294.7813721</ele>
        <time>2008-09-21T06:52:20Z</time>
      </trkpt>
      <trkpt lat="45.93067" lon="4.674">
        <ele>297.6654053</ele>
        <time>2008-09-21T06:52:34Z</time>
      </trkpt>
      <trkpt lat="45.93046" lon="4.67376">
        <ele>301.0299072</ele>
        <time>2008-09-21T06:52:45Z</time>
      </trkpt>
      <trkpt lat="45.93018" lon="4.67354">
        <ele>303.9139404</ele>
        <time>2008-09-21T06:52:58Z</time>
      </trkpt>
      <trkpt lat="45.93007" lon="4.67347">
        <ele>305.8366699</ele>
        <time>2008-09-21T06:53:02Z</time>
      </trkpt>
      <trkpt lat="45.92972" lon="4.67326">
        <ele>309.2011719</ele>
        <time>2008-09-21T06:53:16Z</time>
      </trkpt>
      <trkpt lat="45.92939" lon="4.6729">
        <ele>312.5657959</ele>
        <time>2008-09-21T06:53:33Z</time>
      </trkpt>
      <trkpt lat="45.92938" lon="4.67288">
        <ele>312.5657959</ele>
        <time>2008-09-21T06:53:34Z</time>
      </trkpt>
      <trkpt lat="45.92927" lon="4.67264">
        <ele>314.9691162</ele>
        <time>2008-09-21T06:53:43Z</time>
      </trkpt>
      <trkpt lat="45.92928" lon="4.67246">
        <ele>316.8917236</ele>
        <time>2008-09-21T06:53:48Z</time>
      </trkpt>
      <trkpt lat="45.9293" lon="4.67236">
        <ele>318.3336182</ele>
        <time>2008-09-21T06:53:51Z</time>
      </trkpt>
      <trkpt lat="45.92939" lon="4.67194">
        <ele>321.6983643</ele>
        <time>2008-09-21T06:54:04Z</time>
      </trkpt>
      <trkpt lat="45.9294" lon="4.67136">
        <ele>325.0629883</ele>
        <time>2008-09-21T06:54:22Z</time>
      </trkpt>
      <trkpt lat="45.92928" lon="4.66878">
        <ele>330.8309326</ele>
        <time>2008-09-21T06:55:36Z</time>
      </trkpt>
      <trkpt lat="45.92923" lon="4.66865">
        <ele>330.8309326</ele>
        <time>2008-09-21T06:55:40Z</time>
      </trkpt>
      <trkpt lat="45.92828" lon="4.66801">
        <ele>332.75354</ele>
        <time>2008-09-21T06:55:56Z</time>
      </trkpt>
      <trkpt lat="45.92828" lon="4.66789">
        <ele>333.2341309</ele>
        <time>2008-09-21T06:55:58Z</time>
      </trkpt>
      <trkpt lat="45.92837" lon="4.66747">
        <ele>332.75354</ele>
        <time>2008-09-21T06:56:05Z</time>
      </trkpt>
      <trkpt lat="45.92847" lon="4.66672">
        <ele>332.2728271</ele>
        <time>2008-09-21T06:56:17Z</time>
      </trkpt>
      <trkpt lat="45.92916" lon="4.66718">
        <ele>330.3502197</ele>
        <time>2008-09-21T06:56:33Z</time>
      </trkpt>
      <trkpt lat="45.92951" lon="4.66739">
        <ele>330.3502197</ele>
        <time>2008-09-21T06:56:44Z</time>
      </trkpt>
      <trkpt lat="45.93026" lon="4.66755">
        <ele>327.9467773</ele>
        <time>2008-09-21T06:56:58Z</time>
      </trkpt>
      <trkpt lat="45.93106" lon="4.66758">
        <ele>326.5048828</ele>
        <time>2008-09-21T06:57:10Z</time>
      </trkpt>
      <trkpt lat="45.93141" lon="4.66753">
        <ele>326.0241699</ele>
        <time>2008-09-21T06:57:16Z</time>
      </trkpt>
      <trkpt lat="45.93132" lon="4.66679">
        <ele>324.1015625</ele>
        <time>2008-09-21T06:57:26Z</time>
      </trkpt>
      <trkpt lat="45.93124" lon="4.66632">
        <ele>321.6983643</ele>
        <time>2008-09-21T06:57:31Z</time>
      </trkpt>
      <trkpt lat="45.9313" lon="4.66538">
        <ele>317.3724365</ele>
        <time>2008-09-21T06:57:40Z</time>
      </trkpt>
      <trkpt lat="45.93131" lon="4.66459">
        <ele>314.0078125</ele>
        <time>2008-09-21T06:57:47Z</time>
      </trkpt>
      <trkpt lat="45.9313" lon="4.66448">
        <ele>314.0078125</ele>
        <time>2008-09-21T06:57:48Z</time>
      </trkpt>
      <trkpt lat="45.93075" lon="4.66169">
        <ele>309.6818848</ele>
        <time>2008-09-21T06:58:18Z</time>
      </trkpt>
      <trkpt lat="45.9307" lon="4.66142">
        <ele>309.2011719</ele>
        <time>2008-09-21T06:58:21Z</time>
      </trkpt>
      <trkpt lat="45.931" lon="4.66116">
        <ele>306.7978516</ele>
        <time>2008-09-21T06:58:34Z</time>
      </trkpt>
      <trkpt lat="45.9361" lon="4.6603">
        <ele>294.3007813</ele>
        <time>2008-09-21T07:00:12Z</time>
      </trkpt>
      <trkpt lat="45.93649" lon="4.66089">
        <ele>296.2235107</ele>
        <time>2008-09-21T07:00:47Z</time>
      </trkpt>
      <trkpt lat="45.93715" lon="4.66161">
        <ele>299.1072998</ele>
        <time>2008-09-21T07:01:04Z</time>
      </trkpt>
      <trkpt lat="45.93813" lon="4.66303">
        <ele>297.1846924</ele>
        <time>2008-09-21T07:01:37Z</time>
      </trkpt>
      <trkpt lat="45.93848" lon="4.66301">
        <ele>296.2235107</ele>
        <time>2008-09-21T07:01:42Z</time>
      </trkpt>
      <trkpt lat="45.93986" lon="4.66331">
        <ele>286.6102295</ele>
        <time>2008-09-21T07:02:05Z</time>
      </trkpt>
      <trkpt lat="45.94316" lon="4.66302">
        <ele>281.322998</ele>
        <time>2008-09-21T07:02:55Z</time>
      </trkpt>
      <trkpt lat="45.94188" lon="4.66186">
        <ele>280.8424072</ele>
        <time>2008-09-21T07:02:58Z</time>
      </trkpt>
      <trkpt lat="45.94238" lon="4.66151">
        <ele>273.6324463</ele>
        <time>2008-09-21T07:03:12Z</time>
      </trkpt>
      <trkpt lat="45.94688" lon="4.66355">
        <ele>253.925415</ele>
        <time>2008-09-21T07:05:14Z</time>
      </trkpt>
      <trkpt lat="45.94837" lon="4.66357">
        <ele>252.0028076</ele>
        <time>2008-09-21T07:05:24Z</time>
      </trkpt>
      <trkpt lat="45.94844" lon="4.6635">
        <ele>250.0802002</ele>
        <time>2008-09-21T07:05:27Z</time>
      </trkpt>
      <trkpt lat="45.94843" lon="4.66321">
        <ele>246.7154541</ele>
        <time>2008-09-21T07:05:31Z</time>
      </trkpt>
      <trkpt lat="45.94845" lon="4.66284">
        <ele>244.7928467</ele>
        <time>2008-09-21T07:05:34Z</time>
      </trkpt>
      <trkpt lat="45.94859" lon="4.66252">
        <ele>243.831543</ele>
        <time>2008-09-21T07:05:37Z</time>
      </trkpt>
      <trkpt lat="45.94879" lon="4.66228">
        <ele>245.2734375</ele>
        <time>2008-09-21T07:05:40Z</time>
      </trkpt>
      <trkpt lat="45.94884" lon="4.66224">
        <ele>245.7541504</ele>
        <time>2008-09-21T07:05:41Z</time>
      </trkpt>
      <trkpt lat="45.94895" lon="4.6621">
        <ele>246.7154541</ele>
        <time>2008-09-21T07:05:47Z</time>
      </trkpt>
      <trkpt lat="45.94906" lon="4.6619">
        <ele>246.2348633</ele>
        <time>2008-09-21T07:05:55Z</time>
      </trkpt>
      <trkpt lat="45.9492" lon="4.66183">
        <ele>244.3122559</ele>
        <time>2008-09-21T07:05:58Z</time>
      </trkpt>
      <trkpt lat="45.94957" lon="4.66179">
        <ele>241.9089355</ele>
        <time>2008-09-21T07:06:04Z</time>
      </trkpt>
      <trkpt lat="45.94969" lon="4.66172">
        <ele>241.9089355</ele>
        <time>2008-09-21T07:06:06Z</time>
      </trkpt>
      <trkpt lat="45.94994" lon="4.66151">
        <ele>241.9089355</ele>
        <time>2008-09-21T07:06:10Z</time>
      </trkpt>
      <trkpt lat="45.95011" lon="4.66115">
        <ele>243.831543</ele>
        <time>2008-09-21T07:06:16Z</time>
      </trkpt>
      <trkpt lat="45.94942" lon="4.65867">
        <ele>248.1575928</ele>
        <time>2008-09-21T07:06:51Z</time>
      </trkpt>
      <trkpt lat="45.94931" lon="4.65833">
        <ele>250.0802002</ele>
        <time>2008-09-21T07:06:57Z</time>
      </trkpt>
      <trkpt lat="45.94916" lon="4.65793">
        <ele>253.4447021</ele>
        <time>2008-09-21T07:07:06Z</time>
      </trkpt>
      <trkpt lat="45.94895" lon="4.65738">
        <ele>256.8093262</ele>
        <time>2008-09-21T07:07:20Z</time>
      </trkpt>
      <trkpt lat="45.9486" lon="4.65653">
        <ele>263.5385742</ele>
        <time>2008-09-21T07:07:43Z</time>
      </trkpt>
      <trkpt lat="45.94845" lon="4.65621">
        <ele>265.4613037</ele>
        <time>2008-09-21T07:07:52Z</time>
      </trkpt>
      <trkpt lat="45.94814" lon="4.65559">
        <ele>268.8258057</ele>
        <time>2008-09-21T07:08:10Z</time>
      </trkpt>
      <trkpt lat="45.94773" lon="4.65492">
        <ele>271.7097168</ele>
        <time>2008-09-21T07:08:30Z</time>
      </trkpt>
      <trkpt lat="45.94718" lon="4.65424">
        <ele>275.0744629</ele>
        <time>2008-09-21T07:08:49Z</time>
      </trkpt>
      <trkpt lat="45.94695" lon="4.65367">
        <ele>278.4389648</ele>
        <time>2008-09-21T07:09:01Z</time>
      </trkpt>
      <trkpt lat="45.94676" lon="4.65287">
        <ele>281.8035889</ele>
        <time>2008-09-21T07:09:19Z</time>
      </trkpt>
      <trkpt lat="45.94633" lon="4.6521">
        <ele>284.6876221</ele>
        <time>2008-09-21T07:09:39Z</time>
      </trkpt>
      <trkpt lat="45.94619" lon="4.65184">
        <ele>287.0908203</ele>
        <time>2008-09-21T07:09:46Z</time>
      </trkpt>
      <trkpt lat="45.94579" lon="4.6511">
        <ele>289.9748535</ele>
        <time>2008-09-21T07:10:06Z</time>
      </trkpt>
      <trkpt lat="45.94572" lon="4.65096">
        <ele>290.4555664</ele>
        <time>2008-09-21T07:10:10Z</time>
      </trkpt>
      <trkpt lat="45.94587" lon="4.65072">
        <ele>289.0135498</ele>
        <time>2008-09-21T07:10:17Z</time>
      </trkpt>
      <trkpt lat="45.94613" lon="4.65041">
        <ele>286.6102295</ele>
        <time>2008-09-21T07:10:23Z</time>
      </trkpt>
      <trkpt lat="45.94623" lon="4.65031">
        <ele>284.6876221</ele>
        <time>2008-09-21T07:10:25Z</time>
      </trkpt>
      <trkpt lat="45.94653" lon="4.65007">
        <ele>281.8035889</ele>
        <time>2008-09-21T07:10:30Z</time>
      </trkpt>
      <trkpt lat="45.94701" lon="4.64998">
        <ele>277.958252</ele>
        <time>2008-09-21T07:10:37Z</time>
      </trkpt>
      <trkpt lat="45.94724" lon="4.64994">
        <ele>276.5163574</ele>
        <time>2008-09-21T07:10:40Z</time>
      </trkpt>
      <trkpt lat="45.94746" lon="4.64989">
        <ele>273.6324463</ele>
        <time>2008-09-21T07:10:43Z</time>
      </trkpt>
      <trkpt lat="45.94757" lon="4.64977">
        <ele>272.6711426</ele>
        <time>2008-09-21T07:10:45Z</time>
      </trkpt>
      <trkpt lat="45.94776" lon="4.6495">
        <ele>269.7871094</ele>
        <time>2008-09-21T07:10:49Z</time>
      </trkpt>
      <trkpt lat="45.94785" lon="4.64937">
        <ele>268.8258057</ele>
        <time>2008-09-21T07:10:51Z</time>
      </trkpt>
      <trkpt lat="45.94793" lon="4.64928">
        <ele>267.3839111</ele>
        <time>2008-09-21T07:10:53Z</time>
      </trkpt>
      <trkpt lat="45.94796" lon="4.64932">
        <ele>266.4224854</ele>
        <time>2008-09-21T07:10:56Z</time>
      </trkpt>
      <trkpt lat="45.94799" lon="4.64943">
        <ele>265.4613037</ele>
        <time>2008-09-21T07:10:59Z</time>
      </trkpt>
      <trkpt lat="45.94821" lon="4.64983">
        <ele>265.9418945</ele>
        <time>2008-09-21T07:11:09Z</time>
      </trkpt>
      <trkpt lat="45.94853" lon="4.64971">
        <ele>269.3065186</ele>
        <time>2008-09-21T07:11:21Z</time>
      </trkpt>
      <trkpt lat="45.94856" lon="4.64969">
        <ele>269.7871094</ele>
        <time>2008-09-21T07:11:22Z</time>
      </trkpt>
      <trkpt lat="45.94899" lon="4.64942">
        <ele>272.6711426</ele>
        <time>2008-09-21T07:11:36Z</time>
      </trkpt>
      <trkpt lat="45.94915" lon="4.64924">
        <ele>275.0744629</ele>
        <time>2008-09-21T07:11:43Z</time>
      </trkpt>
      <trkpt lat="45.94939" lon="4.64902">
        <ele>277.958252</ele>
        <time>2008-09-21T07:11:54Z</time>
      </trkpt>
      <trkpt lat="45.94959" lon="4.64892">
        <ele>280.3616943</ele>
        <time>2008-09-21T07:12:02Z</time>
      </trkpt>
      <trkpt lat="45.95006" lon="4.64871">
        <ele>282.7650146</ele>
        <time>2008-09-21T07:12:20Z</time>
      </trkpt>
      <trkpt lat="45.95062" lon="4.64848">
        <ele>283.2456055</ele>
        <time>2008-09-21T07:12:37Z</time>
      </trkpt>
      <trkpt lat="45.9509" lon="4.6483">
        <ele>280.8424072</ele>
        <time>2008-09-21T07:12:43Z</time>
      </trkpt>
      <trkpt lat="45.95119" lon="4.64808">
        <ele>276.9970703</ele>
        <time>2008-09-21T07:12:48Z</time>
      </trkpt>
      <trkpt lat="45.95125" lon="4.64803">
        <ele>276.9970703</ele>
        <time>2008-09-21T07:12:49Z</time>
      </trkpt>
      <trkpt lat="45.95193" lon="4.64748">
        <ele>277.4776611</ele>
        <time>2008-09-21T07:12:59Z</time>
      </trkpt>
      <trkpt lat="45.95228" lon="4.64734">
        <ele>279.8808594</ele>
        <time>2008-09-21T07:13:05Z</time>
      </trkpt>
      <trkpt lat="45.9525" lon="4.64739">
        <ele>280.3616943</ele>
        <time>2008-09-21T07:13:14Z</time>
      </trkpt>
      <trkpt lat="45.95272" lon="4.6475">
        <ele>283.7261963</ele>
        <time>2008-09-21T07:13:24Z</time>
      </trkpt>
      <trkpt lat="45.95289" lon="4.64754">
        <ele>287.0908203</ele>
        <time>2008-09-21T07:13:32Z</time>
      </trkpt>
      <trkpt lat="45.95298" lon="4.64755">
        <ele>288.532959</ele>
        <time>2008-09-21T07:13:36Z</time>
      </trkpt>
      <trkpt lat="45.95327" lon="4.64747">
        <ele>290.9361572</ele>
        <time>2008-09-21T07:13:50Z</time>
      </trkpt>
      <trkpt lat="45.95346" lon="4.64755">
        <ele>294.3007813</ele>
        <time>2008-09-21T07:13:59Z</time>
      </trkpt>
      <trkpt lat="45.95376" lon="4.64771">
        <ele>297.6654053</ele>
        <time>2008-09-21T07:14:13Z</time>
      </trkpt>
      <trkpt lat="45.95398" lon="4.64784">
        <ele>301.0299072</ele>
        <time>2008-09-21T07:14:24Z</time>
      </trkpt>
      <trkpt lat="45.95428" lon="4.64798">
        <ele>304.3946533</ele>
        <time>2008-09-21T07:14:39Z</time>
      </trkpt>
      <trkpt lat="45.95465" lon="4.64804">
        <ele>307.7592773</ele>
        <time>2008-09-21T07:14:55Z</time>
      </trkpt>
      <trkpt lat="45.95487" lon="4.64808">
        <ele>310.6430664</ele>
        <time>2008-09-21T07:15:04Z</time>
      </trkpt>
      <trkpt lat="45.95523" lon="4.64784">
        <ele>312.0852051</ele>
        <time>2008-09-21T07:15:17Z</time>
      </trkpt>
      <trkpt lat="45.95581" lon="4.64765">
        <ele>309.6818848</ele>
        <time>2008-09-21T07:15:29Z</time>
      </trkpt>
      <trkpt lat="45.95607" lon="4.64761">
        <ele>306.7978516</ele>
        <time>2008-09-21T07:15:32Z</time>
      </trkpt>
      <trkpt lat="45.95627" lon="4.64762">
        <ele>302.9525146</ele>
        <time>2008-09-21T07:15:34Z</time>
      </trkpt>
      <trkpt lat="45.95646" lon="4.64764">
        <ele>298.626709</ele>
        <time>2008-09-21T07:15:36Z</time>
      </trkpt>
      <trkpt lat="45.95682" lon="4.64766">
        <ele>294.7813721</ele>
        <time>2008-09-21T07:15:40Z</time>
      </trkpt>
      <trkpt lat="45.95712" lon="4.64747">
        <ele>290.4555664</ele>
        <time>2008-09-21T07:15:44Z</time>
      </trkpt>
      <trkpt lat="45.95718" lon="4.64741">
        <ele>288.532959</ele>
        <time>2008-09-21T07:15:45Z</time>
      </trkpt>
      <trkpt lat="45.95727" lon="4.64732">
        <ele>287.5714111</ele>
        <time>2008-09-21T07:15:47Z</time>
      </trkpt>
      <trkpt lat="45.95744" lon="4.64714">
        <ele>285.1682129</ele>
        <time>2008-09-21T07:15:55Z</time>
      </trkpt>
      <trkpt lat="45.95749" lon="4.64709">
        <ele>284.6876221</ele>
        <time>2008-09-21T07:15:56Z</time>
      </trkpt>
      <trkpt lat="45.9576" lon="4.64699">
        <ele>282.2843018</ele>
        <time>2008-09-21T07:15:59Z</time>
      </trkpt>
      <trkpt lat="45.9577" lon="4.64691">
        <ele>280.3616943</ele>
        <time>2008-09-21T07:16:01Z</time>
      </trkpt>
      <trkpt lat="45.95802" lon="4.64669">
        <ele>275.5550537</ele>
        <time>2008-09-21T07:16:06Z</time>
      </trkpt>
      <trkpt lat="45.95818" lon="4.64656">
        <ele>272.1904297</ele>
        <time>2008-09-21T07:16:09Z</time>
      </trkpt>
      <trkpt lat="45.95838" lon="4.64642">
        <ele>269.7871094</ele>
        <time>2008-09-21T07:16:13Z</time>
      </trkpt>
      <trkpt lat="45.95861" lon="4.6465">
        <ele>266.4224854</ele>
        <time>2008-09-21T07:16:17Z</time>
      </trkpt>
      <trkpt lat="45.95884" lon="4.64653">
        <ele>263.0578613</ele>
        <time>2008-09-21T07:16:20Z</time>
      </trkpt>
      <trkpt lat="45.95897" lon="4.64658">
        <ele>261.6159668</ele>
        <time>2008-09-21T07:16:22Z</time>
      </trkpt>
      <trkpt lat="45.95908" lon="4.64681">
        <ele>259.6933594</ele>
        <time>2008-09-21T07:16:26Z</time>
      </trkpt>
      <trkpt lat="45.95914" lon="4.64696">
        <ele>258.2513428</ele>
        <time>2008-09-21T07:16:28Z</time>
      </trkpt>
      <trkpt lat="45.95916" lon="4.64704">
        <ele>258.2513428</ele>
        <time>2008-09-21T07:16:29Z</time>
      </trkpt>
      <trkpt lat="45.95939" lon="4.64748">
        <ele>257.2900391</ele>
        <time>2008-09-21T07:16:41Z</time>
      </trkpt>
      <trkpt lat="45.95925" lon="4.64745">
        <ele>257.2900391</ele>
        <time>2008-09-21T07:17:35Z</time>
      </trkpt>
      <trkpt lat="45.95915" lon="4.64749">
        <ele>256.3287354</ele>
        <time>2008-09-21T07:23:05Z</time>
      </trkpt>
      <trkpt lat="45.95934" lon="4.64743">
        <ele>254.8865967</ele>
        <time>2008-09-21T07:23:10Z</time>
      </trkpt>
      <trkpt lat="45.9594" lon="4.64741">
        <ele>253.925415</ele>
        <time>2008-09-21T07:23:11Z</time>
      </trkpt>
      <trkpt lat="45.9596" lon="4.64763">
        <ele>252.9639893</ele>
        <time>2008-09-21T07:23:19Z</time>
      </trkpt>
      <trkpt lat="45.95969" lon="4.64761">
        <ele>253.4447021</ele>
        <time>2008-09-21T07:23:29Z</time>
      </trkpt>
      <trkpt lat="45.95973" lon="4.64774">
        <ele>252.9639893</ele>
        <time>2008-09-21T07:23:33Z</time>
      </trkpt>
      <trkpt lat="45.95994" lon="4.64823">
        <ele>252.9639893</ele>
        <time>2008-09-21T07:23:44Z</time>
      </trkpt>
      <trkpt lat="45.9603" lon="4.64827">
        <ele>252.9639893</ele>
        <time>2008-09-21T07:23:52Z</time>
      </trkpt>
      <trkpt lat="45.96044" lon="4.64836">
        <ele>252.9639893</ele>
        <time>2008-09-21T07:23:55Z</time>
      </trkpt>
      <trkpt lat="45.96112" lon="4.64862">
        <ele>256.8093262</ele>
        <time>2008-09-21T07:24:09Z</time>
      </trkpt>
      <trkpt lat="45.96116" lon="4.64864">
        <ele>256.8093262</ele>
        <time>2008-09-21T07:24:10Z</time>
      </trkpt>
      <trkpt lat="45.96146" lon="4.64904">
        <ele>260.1739502</ele>
        <time>2008-09-21T07:24:22Z</time>
      </trkpt>
      <trkpt lat="45.9618" lon="4.64937">
        <ele>263.5385742</ele>
        <time>2008-09-21T07:24:38Z</time>
      </trkpt>
      <trkpt lat="45.962" lon="4.64947">
        <ele>266.9031982</ele>
        <time>2008-09-21T07:24:48Z</time>
      </trkpt>
      <trkpt lat="45.96216" lon="4.64957">
        <ele>270.2677002</ele>
        <time>2008-09-21T07:24:57Z</time>
      </trkpt>
      <trkpt lat="45.96223" lon="4.6497">
        <ele>272.1904297</ele>
        <time>2008-09-21T07:25:04Z</time>
      </trkpt>
      <trkpt lat="45.96228" lon="4.64958">
        <ele>272.6711426</ele>
        <time>2008-09-21T07:25:10Z</time>
      </trkpt>
      <trkpt lat="45.96211" lon="4.64875">
        <ele>274.1130371</ele>
        <time>2008-09-21T07:25:28Z</time>
      </trkpt>
      <trkpt lat="45.96182" lon="4.64787">
        <ele>275.5550537</ele>
        <time>2008-09-21T07:25:45Z</time>
      </trkpt>
      <trkpt lat="45.96173" lon="4.64736">
        <ele>278.4389648</ele>
        <time>2008-09-21T07:25:55Z</time>
      </trkpt>
      <trkpt lat="45.96183" lon="4.6464">
        <ele>279.4002686</ele>
        <time>2008-09-21T07:26:13Z</time>
      </trkpt>
      <trkpt lat="45.96189" lon="4.64576">
        <ele>281.322998</ele>
        <time>2008-09-21T07:26:23Z</time>
      </trkpt>
      <trkpt lat="45.96192" lon="4.6451">
        <ele>284.2069092</ele>
        <time>2008-09-21T07:26:34Z</time>
      </trkpt>
      <trkpt lat="45.96199" lon="4.64413">
        <ele>287.0908203</ele>
        <time>2008-09-21T07:26:50Z</time>
      </trkpt>
      <trkpt lat="45.96233" lon="4.64307">
        <ele>290.4555664</ele>
        <time>2008-09-21T07:27:10Z</time>
      </trkpt>
      <trkpt lat="45.96275" lon="4.64192">
        <ele>293.3393555</ele>
        <time>2008-09-21T07:27:32Z</time>
      </trkpt>
      <trkpt lat="45.96298" lon="4.64087">
        <ele>295.2619629</ele>
        <time>2008-09-21T07:27:51Z</time>
      </trkpt>
      <trkpt lat="45.96312" lon="4.63971">
        <ele>298.626709</ele>
        <time>2008-09-21T07:28:11Z</time>
      </trkpt>
      <trkpt lat="45.96336" lon="4.63874">
        <ele>301.5106201</ele>
        <time>2008-09-21T07:28:29Z</time>
      </trkpt>
      <trkpt lat="45.96356" lon="4.63747">
        <ele>304.3946533</ele>
        <time>2008-09-21T07:28:52Z</time>
      </trkpt>
      <trkpt lat="45.9637" lon="4.63656">
        <ele>307.7592773</ele>
        <time>2008-09-21T07:29:09Z</time>
      </trkpt>
      <trkpt lat="45.96404" lon="4.63529">
        <ele>314.9691162</ele>
        <time>2008-09-21T07:29:40Z</time>
      </trkpt>
      <trkpt lat="45.96406" lon="4.63528">
        <ele>314.4884033</ele>
        <time>2008-09-21T07:29:41Z</time>
      </trkpt>
      <trkpt lat="45.96427" lon="4.63536">
        <ele>318.3336182</ele>
        <time>2008-09-21T07:29:54Z</time>
      </trkpt>
      <trkpt lat="45.96428" lon="4.63536">
        <ele>318.3336182</ele>
        <time>2008-09-21T07:29:55Z</time>
      </trkpt>
      <trkpt lat="45.96463" lon="4.63543">
        <ele>321.2177734</ele>
        <time>2008-09-21T07:30:09Z</time>
      </trkpt>
      <trkpt lat="45.96489" lon="4.63573">
        <ele>324.5822754</ele>
        <time>2008-09-21T07:30:20Z</time>
      </trkpt>
      <trkpt lat="45.9651" lon="4.63607">
        <ele>324.5822754</ele>
        <time>2008-09-21T07:30:26Z</time>
      </trkpt>
      <trkpt lat="45.96517" lon="4.63638">
        <ele>322.659668</ele>
        <time>2008-09-21T07:30:30Z</time>
      </trkpt>
      <trkpt lat="45.96517" lon="4.63647">
        <ele>322.1789551</ele>
        <time>2008-09-21T07:30:31Z</time>
      </trkpt>
      <trkpt lat="45.96523" lon="4.63762">
        <ele>319.2950439</ele>
        <time>2008-09-21T07:30:42Z</time>
      </trkpt>
      <trkpt lat="45.96532" lon="4.63794">
        <ele>317.8530273</ele>
        <time>2008-09-21T07:30:45Z</time>
      </trkpt>
      <trkpt lat="45.96552" lon="4.63834">
        <ele>314.9691162</ele>
        <time>2008-09-21T07:30:49Z</time>
      </trkpt>
      <trkpt lat="45.96565" lon="4.63888">
        <ele>311.1237793</ele>
        <time>2008-09-21T07:30:54Z</time>
      </trkpt>
      <trkpt lat="45.96566" lon="4.63899">
        <ele>310.1624756</ele>
        <time>2008-09-21T07:30:55Z</time>
      </trkpt>
      <trkpt lat="45.96564" lon="4.63988">
        <ele>306.7978516</ele>
        <time>2008-09-21T07:31:04Z</time>
      </trkpt>
      <trkpt lat="45.96557" lon="4.64096">
        <ele>303.9139404</ele>
        <time>2008-09-21T07:31:18Z</time>
      </trkpt>
      <trkpt lat="45.96555" lon="4.64108">
        <ele>302.9525146</ele>
        <time>2008-09-21T07:31:20Z</time>
      </trkpt>
      <trkpt lat="45.96554" lon="4.64138">
        <ele>301.5106201</ele>
        <time>2008-09-21T07:31:24Z</time>
      </trkpt>
      <trkpt lat="45.96573" lon="4.64229">
        <ele>299.1072998</ele>
        <time>2008-09-21T07:31:34Z</time>
      </trkpt>
      <trkpt lat="45.96604" lon="4.64427">
        <ele>293.8200684</ele>
        <time>2008-09-21T07:31:55Z</time>
      </trkpt>
      <trkpt lat="45.96608" lon="4.64462">
        <ele>293.8200684</ele>
        <time>2008-09-21T07:31:59Z</time>
      </trkpt>
      <trkpt lat="45.96661" lon="4.6462">
        <ele>290.9361572</ele>
        <time>2008-09-21T07:32:21Z</time>
      </trkpt>
      <trkpt lat="45.9668" lon="4.6466">
        <ele>289.9748535</ele>
        <time>2008-09-21T07:32:27Z</time>
      </trkpt>
      <trkpt lat="45.96686" lon="4.64676">
        <ele>289.0135498</ele>
        <time>2008-09-21T07:32:29Z</time>
      </trkpt>
      <trkpt lat="45.96714" lon="4.64857">
        <ele>287.5714111</ele>
        <time>2008-09-21T07:32:52Z</time>
      </trkpt>
      <trkpt lat="45.96728" lon="4.64931">
        <ele>284.6876221</ele>
        <time>2008-09-21T07:33:00Z</time>
      </trkpt>
      <trkpt lat="45.9677" lon="4.65081">
        <ele>281.322998</ele>
        <time>2008-09-21T07:33:17Z</time>
      </trkpt>
      <trkpt lat="45.96774" lon="4.65108">
        <ele>279.4002686</ele>
        <time>2008-09-21T07:33:20Z</time>
      </trkpt>
      <trkpt lat="45.96785" lon="4.65143">
        <ele>277.958252</ele>
        <time>2008-09-21T07:33:24Z</time>
      </trkpt>
      <trkpt lat="45.96793" lon="4.6518">
        <ele>277.4776611</ele>
        <time>2008-09-21T07:33:28Z</time>
      </trkpt>
      <trkpt lat="45.96795" lon="4.65209">
        <ele>276.0356445</ele>
        <time>2008-09-21T07:33:31Z</time>
      </trkpt>
      <trkpt lat="45.96789" lon="4.65261">
        <ele>272.6711426</ele>
        <time>2008-09-21T07:33:36Z</time>
      </trkpt>
      <trkpt lat="45.96787" lon="4.65272">
        <ele>272.6711426</ele>
        <time>2008-09-21T07:33:37Z</time>
      </trkpt>
      <trkpt lat="45.96779" lon="4.65324">
        <ele>269.3065186</ele>
        <time>2008-09-21T07:33:41Z</time>
      </trkpt>
      <trkpt lat="45.96776" lon="4.65353">
        <ele>266.9031982</ele>
        <time>2008-09-21T07:33:43Z</time>
      </trkpt>
      <trkpt lat="45.9677" lon="4.65413">
        <ele>263.5385742</ele>
        <time>2008-09-21T07:33:47Z</time>
      </trkpt>
      <trkpt lat="45.96765" lon="4.6544">
        <ele>261.1352539</ele>
        <time>2008-09-21T07:33:49Z</time>
      </trkpt>
      <trkpt lat="45.96776" lon="4.65494">
        <ele>257.2900391</ele>
        <time>2008-09-21T07:33:54Z</time>
      </trkpt>
      <trkpt lat="45.96775" lon="4.65537">
        <ele>259.2126465</ele>
        <time>2008-09-21T07:33:59Z</time>
      </trkpt>
      <trkpt lat="45.96772" lon="4.65544">
        <ele>259.2126465</ele>
        <time>2008-09-21T07:34:00Z</time>
      </trkpt>
      <trkpt lat="45.96767" lon="4.65557">
        <ele>260.654541</ele>
        <time>2008-09-21T07:34:02Z</time>
      </trkpt>
      <trkpt lat="45.9676" lon="4.65577">
        <ele>262.5771484</ele>
        <time>2008-09-21T07:34:05Z</time>
      </trkpt>
      <trkpt lat="45.96724" lon="4.65664">
        <ele>265.4613037</ele>
        <time>2008-09-21T07:34:20Z</time>
      </trkpt>
      <trkpt lat="45.96702" lon="4.65713">
        <ele>268.3450928</ele>
        <time>2008-09-21T07:34:29Z</time>
      </trkpt>
      <trkpt lat="45.96689" lon="4.65739">
        <ele>269.3065186</ele>
        <time>2008-09-21T07:34:34Z</time>
      </trkpt>
      <trkpt lat="45.96649" lon="4.65856">
        <ele>269.3065186</ele>
        <time>2008-09-21T07:34:52Z</time>
      </trkpt>
      <trkpt lat="45.96654" lon="4.65895">
        <ele>268.3450928</ele>
        <time>2008-09-21T07:34:57Z</time>
      </trkpt>
      <trkpt lat="45.9667" lon="4.65954">
        <ele>264.0192871</ele>
        <time>2008-09-21T07:35:03Z</time>
      </trkpt>
      <trkpt lat="45.96671" lon="4.66006">
        <ele>260.1739502</ele>
        <time>2008-09-21T07:35:07Z</time>
      </trkpt>
      <trkpt lat="45.96672" lon="4.66049">
        <ele>255.8480225</ele>
        <time>2008-09-21T07:35:10Z</time>
      </trkpt>
      <trkpt lat="45.96676" lon="4.66095">
        <ele>252.9639893</ele>
        <time>2008-09-21T07:35:13Z</time>
      </trkpt>
      <trkpt lat="45.96682" lon="4.66157">
        <ele>250.0802002</ele>
        <time>2008-09-21T07:35:17Z</time>
      </trkpt>
      <trkpt lat="45.96684" lon="4.66182">
        <ele>248.1575928</ele>
        <time>2008-09-21T07:35:19Z</time>
      </trkpt>
      <trkpt lat="45.96686" lon="4.66202">
        <ele>247.6767578</ele>
        <time>2008-09-21T07:35:21Z</time>
      </trkpt>
      <trkpt lat="45.96705" lon="4.66259">
        <ele>244.7928467</ele>
        <time>2008-09-21T07:35:27Z</time>
      </trkpt>
      <trkpt lat="45.96735" lon="4.66318">
        <ele>242.3896484</ele>
        <time>2008-09-21T07:35:33Z</time>
      </trkpt>
      <trkpt lat="45.96757" lon="4.66397">
        <ele>239.5054932</ele>
        <time>2008-09-21T07:35:40Z</time>
      </trkpt>
      <trkpt lat="45.96782" lon="4.66528">
        <ele>232.2957764</ele>
        <time>2008-09-21T07:35:51Z</time>
      </trkpt>
      <trkpt lat="45.96789" lon="4.66578">
        <ele>229.892334</ele>
        <time>2008-09-21T07:35:55Z</time>
      </trkpt>
      <trkpt lat="45.96786" lon="4.66602">
        <ele>228.9311523</ele>
        <time>2008-09-21T07:35:57Z</time>
      </trkpt>
      <trkpt lat="45.96759" lon="4.6664">
        <ele>229.4117432</ele>
        <time>2008-09-21T07:36:02Z</time>
      </trkpt>
      <trkpt lat="45.96736" lon="4.66642">
        <ele>229.892334</ele>
        <time>2008-09-21T07:36:08Z</time>
      </trkpt>
      <trkpt lat="45.96737" lon="4.66666">
        <ele>229.4117432</ele>
        <time>2008-09-21T07:36:13Z</time>
      </trkpt>
      <trkpt lat="45.96786" lon="4.66747">
        <ele>226.527832</ele>
        <time>2008-09-21T07:36:25Z</time>
      </trkpt>
      <trkpt lat="45.9678" lon="4.66789">
        <ele>226.0471191</ele>
        <time>2008-09-21T07:36:32Z</time>
      </trkpt>
      <trkpt lat="45.96767" lon="4.66787">
        <ele>225.0859375</ele>
        <time>2008-09-21T07:36:34Z</time>
      </trkpt>
      <trkpt lat="45.9665" lon="4.66794">
        <ele>223.6437988</ele>
        <time>2008-09-21T07:36:51Z</time>
      </trkpt>
      <trkpt lat="45.96639" lon="4.66799">
        <ele>224.6052246</ele>
        <time>2008-09-21T07:36:53Z</time>
      </trkpt>
      <trkpt lat="45.96561" lon="4.66875">
        <ele>224.1245117</ele>
        <time>2008-09-21T07:37:08Z</time>
      </trkpt>
      <trkpt lat="45.96554" lon="4.66922">
        <ele>224.6052246</ele>
        <time>2008-09-21T07:37:14Z</time>
      </trkpt>
      <trkpt lat="45.96555" lon="4.66948">
        <ele>224.1245117</ele>
        <time>2008-09-21T07:37:17Z</time>
      </trkpt>
      <trkpt lat="45.96545" lon="4.66988">
        <ele>223.6437988</ele>
        <time>2008-09-21T07:37:22Z</time>
      </trkpt>
      <trkpt lat="45.96541" lon="4.66998">
        <ele>224.1245117</ele>
        <time>2008-09-21T07:37:24Z</time>
      </trkpt>
      <trkpt lat="45.96542" lon="4.67001">
        <ele>224.6052246</ele>
        <time>2008-09-21T07:37:26Z</time>
      </trkpt>
      <trkpt lat="45.96544" lon="4.67004">
        <ele>224.6052246</ele>
        <time>2008-09-21T07:37:29Z</time>
      </trkpt>
      <trkpt lat="45.96547" lon="4.67024">
        <ele>224.6052246</ele>
        <time>2008-09-21T07:37:36Z</time>
      </trkpt>
      <trkpt lat="45.96555" lon="4.67042">
        <ele>223.6437988</ele>
        <time>2008-09-21T07:37:40Z</time>
      </trkpt>
      <trkpt lat="45.96515" lon="4.67073">
        <ele>225.5665283</ele>
        <time>2008-09-21T07:37:50Z</time>
      </trkpt>
      <trkpt lat="45.96512" lon="4.67075">
        <ele>226.0471191</ele>
        <time>2008-09-21T07:37:51Z</time>
      </trkpt>
      <trkpt lat="45.96482" lon="4.67096">
        <ele>231.3343506</ele>
        <time>2008-09-21T07:38:06Z</time>
      </trkpt>
      <trkpt lat="45.96469" lon="4.67107">
        <ele>231.8149414</ele>
        <time>2008-09-21T07:38:15Z</time>
      </trkpt>
      <trkpt lat="45.96455" lon="4.67115">
        <ele>235.6602783</ele>
        <time>2008-09-21T07:38:23Z</time>
      </trkpt>
      <trkpt lat="45.96432" lon="4.67134">
        <ele>239.0249023</ele>
        <time>2008-09-21T07:38:40Z</time>
      </trkpt>
      <trkpt lat="45.96424" lon="4.67142">
        <ele>241.9089355</ele>
        <time>2008-09-21T07:38:48Z</time>
      </trkpt>
      <trkpt lat="45.96411" lon="4.67151">
        <ele>245.2734375</ele>
        <time>2008-09-21T07:39:00Z</time>
      </trkpt>
      <trkpt lat="45.96399" lon="4.67157">
        <ele>249.1187744</ele>
        <time>2008-09-21T07:39:11Z</time>
      </trkpt>
      <trkpt lat="45.96387" lon="4.67164">
        <ele>252.9639893</ele>
        <time>2008-09-21T07:39:23Z</time>
      </trkpt>
      <trkpt lat="45.96372" lon="4.67173">
        <ele>255.8480225</ele>
        <time>2008-09-21T07:39:36Z</time>
      </trkpt>
      <trkpt lat="45.96361" lon="4.67177">
        <ele>259.2126465</ele>
        <time>2008-09-21T07:39:45Z</time>
      </trkpt>
      <trkpt lat="45.96359" lon="4.67178">
        <ele>260.1739502</ele>
        <time>2008-09-21T07:39:47Z</time>
      </trkpt>
      <trkpt lat="45.96342" lon="4.67187">
        <ele>263.5385742</ele>
        <time>2008-09-21T07:40:00Z</time>
      </trkpt>
      <trkpt lat="45.96328" lon="4.67194">
        <ele>266.9031982</ele>
        <time>2008-09-21T07:40:12Z</time>
      </trkpt>
      <trkpt lat="45.96312" lon="4.67205">
        <ele>270.7484131</ele>
        <time>2008-09-21T07:40:24Z</time>
      </trkpt>
      <trkpt lat="45.96305" lon="4.67209">
        <ele>272.6711426</ele>
        <time>2008-09-21T07:40:29Z</time>
      </trkpt>
      <trkpt lat="45.96301" lon="4.67212">
        <ele>274.1130371</ele>
        <time>2008-09-21T07:40:32Z</time>
      </trkpt>
      <trkpt lat="45.96285" lon="4.67219">
        <ele>276.9970703</ele>
        <time>2008-09-21T07:40:44Z</time>
      </trkpt>
      <trkpt lat="45.96274" lon="4.67221">
        <ele>280.3616943</ele>
        <time>2008-09-21T07:40:53Z</time>
      </trkpt>
      <trkpt lat="45.96266" lon="4.67221">
        <ele>279.8808594</ele>
        <time>2008-09-21T07:41:23Z</time>
      </trkpt>
      <trkpt lat="45.96276" lon="4.67219">
        <ele>281.322998</ele>
        <time>2008-09-21T07:41:27Z</time>
      </trkpt>
      <trkpt lat="45.96273" lon="4.67225">
        <ele>282.2843018</ele>
        <time>2008-09-21T07:41:35Z</time>
      </trkpt>
      <trkpt lat="45.96258" lon="4.67233">
        <ele>286.1295166</ele>
        <time>2008-09-21T07:41:48Z</time>
      </trkpt>
      <trkpt lat="45.9624" lon="4.67242">
        <ele>288.532959</ele>
        <time>2008-09-21T07:42:04Z</time>
      </trkpt>
      <trkpt lat="45.96234" lon="4.67249">
        <ele>289.9748535</ele>
        <time>2008-09-21T07:42:22Z</time>
      </trkpt>
      <trkpt lat="45.96231" lon="4.6725">
        <ele>291.416748</ele>
        <time>2008-09-21T07:42:25Z</time>
      </trkpt>
      <trkpt lat="45.96206" lon="4.67286">
        <ele>297.6654053</ele>
        <time>2008-09-21T07:42:50Z</time>
      </trkpt>
      <trkpt lat="45.962" lon="4.67299">
        <ele>300.5493164</ele>
        <time>2008-09-21T07:42:59Z</time>
      </trkpt>
      <trkpt lat="45.96198" lon="4.67301">
        <ele>300.5493164</ele>
        <time>2008-09-21T07:43:01Z</time>
      </trkpt>
      <trkpt lat="45.96196" lon="4.67307">
        <ele>301.5106201</ele>
        <time>2008-09-21T07:43:05Z</time>
      </trkpt>
      <trkpt lat="45.96191" lon="4.67328">
        <ele>304.8752441</ele>
        <time>2008-09-21T07:43:17Z</time>
      </trkpt>
      <trkpt lat="45.96191" lon="4.67332">
        <ele>305.355957</ele>
        <time>2008-09-21T07:43:19Z</time>
      </trkpt>
      <trkpt lat="45.96179" lon="4.6737">
        <ele>308.2398682</ele>
        <time>2008-09-21T07:43:37Z</time>
      </trkpt>
      <trkpt lat="45.96157" lon="4.67423">
        <ele>310.6430664</ele>
        <time>2008-09-21T07:43:54Z</time>
      </trkpt>
      <trkpt lat="45.96128" lon="4.67488">
        <ele>310.6430664</ele>
        <time>2008-09-21T07:44:09Z</time>
      </trkpt>
      <trkpt lat="45.96118" lon="4.67532">
        <ele>309.2011719</ele>
        <time>2008-09-21T07:44:15Z</time>
      </trkpt>
      <trkpt lat="45.96112" lon="4.67558">
        <ele>307.2785645</ele>
        <time>2008-09-21T07:44:18Z</time>
      </trkpt>
      <trkpt lat="45.961" lon="4.67606">
        <ele>304.8752441</ele>
        <time>2008-09-21T07:44:23Z</time>
      </trkpt>
      <trkpt lat="45.96086" lon="4.67639">
        <ele>302.4719238</ele>
        <time>2008-09-21T07:44:27Z</time>
      </trkpt>
      <trkpt lat="45.96068" lon="4.6767">
        <ele>300.5493164</ele>
        <time>2008-09-21T07:44:31Z</time>
      </trkpt>
      <trkpt lat="45.96031" lon="4.67705">
        <ele>297.1846924</ele>
        <time>2008-09-21T07:44:37Z</time>
      </trkpt>
      <trkpt lat="45.96016" lon="4.67725">
        <ele>294.3007813</ele>
        <time>2008-09-21T07:44:40Z</time>
      </trkpt>
      <trkpt lat="45.96012" lon="4.67733">
        <ele>293.3393555</ele>
        <time>2008-09-21T07:44:41Z</time>
      </trkpt>
      <trkpt lat="45.96004" lon="4.67769">
        <ele>289.0135498</ele>
        <time>2008-09-21T07:44:45Z</time>
      </trkpt>
      <trkpt lat="45.96003" lon="4.67774">
        <ele>289.0135498</ele>
        <time>2008-09-21T07:44:46Z</time>
      </trkpt>
      <trkpt lat="45.96003" lon="4.67778">
        <ele>287.5714111</ele>
        <time>2008-09-21T07:44:49Z</time>
      </trkpt>
      <trkpt lat="45.96037" lon="4.67801">
        <ele>286.1295166</ele>
        <time>2008-09-21T07:44:59Z</time>
      </trkpt>
      <trkpt lat="45.96109" lon="4.67846">
        <ele>286.1295166</ele>
        <time>2008-09-21T07:45:14Z</time>
      </trkpt>
      <trkpt lat="45.96146" lon="4.67866">
        <ele>286.6102295</ele>
        <time>2008-09-21T07:45:23Z</time>
      </trkpt>
      <trkpt lat="45.96207" lon="4.67875">
        <ele>287.5714111</ele>
        <time>2008-09-21T07:45:37Z</time>
      </trkpt>
      <trkpt lat="45.96222" lon="4.6788">
        <ele>289.0135498</ele>
        <time>2008-09-21T07:45:41Z</time>
      </trkpt>
      <trkpt lat="45.96299" lon="4.67925">
        <ele>287.5714111</ele>
        <time>2008-09-21T07:45:56Z</time>
      </trkpt>
      <trkpt lat="45.96403" lon="4.67954">
        <ele>287.5714111</ele>
        <time>2008-09-21T07:46:13Z</time>
      </trkpt>
      <trkpt lat="45.96467" lon="4.67986">
        <ele>284.2069092</ele>
        <time>2008-09-21T07:46:22Z</time>
      </trkpt>
      <trkpt lat="45.96511" lon="4.68016">
        <ele>280.8424072</ele>
        <time>2008-09-21T07:46:28Z</time>
      </trkpt>
      <trkpt lat="45.96532" lon="4.68035">
        <ele>279.4002686</ele>
        <time>2008-09-21T07:46:31Z</time>
      </trkpt>
      <trkpt lat="45.96561" lon="4.68068">
        <ele>276.5163574</ele>
        <time>2008-09-21T07:46:35Z</time>
      </trkpt>
      <trkpt lat="45.96593" lon="4.68102">
        <ele>272.1904297</ele>
        <time>2008-09-21T07:46:39Z</time>
      </trkpt>
      <trkpt lat="45.96619" lon="4.68127">
        <ele>268.3450928</ele>
        <time>2008-09-21T07:46:42Z</time>
      </trkpt>
      <trkpt lat="45.96627" lon="4.68136">
        <ele>266.4224854</ele>
        <time>2008-09-21T07:46:43Z</time>
      </trkpt>
      <trkpt lat="45.96644" lon="4.68181">
        <ele>263.0578613</ele>
        <time>2008-09-21T07:46:47Z</time>
      </trkpt>
      <trkpt lat="45.9667" lon="4.68234">
        <ele>260.1739502</ele>
        <time>2008-09-21T07:46:52Z</time>
      </trkpt>
      <trkpt lat="45.96672" lon="4.6824">
        <ele>259.6933594</ele>
        <time>2008-09-21T07:46:53Z</time>
      </trkpt>
      <trkpt lat="45.96665" lon="4.68265">
        <ele>255.8480225</ele>
        <time>2008-09-21T07:47:00Z</time>
      </trkpt>
      <trkpt lat="45.96662" lon="4.68277">
        <ele>254.4060059</ele>
        <time>2008-09-21T07:47:02Z</time>
      </trkpt>
      <trkpt lat="45.96651" lon="4.68315">
        <ele>249.5994873</ele>
        <time>2008-09-21T07:47:06Z</time>
      </trkpt>
      <trkpt lat="45.96642" lon="4.68346">
        <ele>245.7541504</ele>
        <time>2008-09-21T07:47:09Z</time>
      </trkpt>
      <trkpt lat="45.96632" lon="4.68381">
        <ele>242.3896484</ele>
        <time>2008-09-21T07:47:13Z</time>
      </trkpt>
      <trkpt lat="45.96628" lon="4.68395">
        <ele>238.5443115</ele>
        <time>2008-09-21T07:47:15Z</time>
      </trkpt>
      <trkpt lat="45.9662" lon="4.68418">
        <ele>236.6217041</ele>
        <time>2008-09-21T07:47:19Z</time>
      </trkpt>
      <trkpt lat="45.96606" lon="4.68422">
        <ele>232.2957764</ele>
        <time>2008-09-21T07:47:22Z</time>
      </trkpt>
      <trkpt lat="45.96578" lon="4.68418">
        <ele>228.4504395</ele>
        <time>2008-09-21T07:47:26Z</time>
      </trkpt>
      <trkpt lat="45.96565" lon="4.6842">
        <ele>227.9697266</ele>
        <time>2008-09-21T07:47:28Z</time>
      </trkpt>
      <trkpt lat="45.96559" lon="4.68472">
        <ele>228.4504395</ele>
        <time>2008-09-21T07:47:36Z</time>
      </trkpt>
      <trkpt lat="45.96569" lon="4.68533">
        <ele>231.8149414</ele>
        <time>2008-09-21T07:47:45Z</time>
      </trkpt>
      <trkpt lat="45.96571" lon="4.68547">
        <ele>232.7764893</ele>
        <time>2008-09-21T07:47:48Z</time>
      </trkpt>
      <trkpt lat="45.96585" lon="4.68569">
        <ele>236.1409912</ele>
        <time>2008-09-21T07:48:01Z</time>
      </trkpt>
      <trkpt lat="45.96591" lon="4.68576">
        <ele>237.5828857</ele>
        <time>2008-09-21T07:48:06Z</time>
      </trkpt>
      <trkpt lat="45.96597" lon="4.6859">
        <ele>239.5054932</ele>
        <time>2008-09-21T07:48:14Z</time>
      </trkpt>
      <trkpt lat="45.96593" lon="4.68598">
        <ele>241.4282227</ele>
        <time>2008-09-21T07:48:18Z</time>
      </trkpt>
      <trkpt lat="45.96594" lon="4.68635">
        <ele>244.3122559</ele>
        <time>2008-09-21T07:48:31Z</time>
      </trkpt>
      <trkpt lat="45.96594" lon="4.6868">
        <ele>246.7154541</ele>
        <time>2008-09-21T07:48:47Z</time>
      </trkpt>
      <trkpt lat="45.96571" lon="4.68715">
        <ele>249.5994873</ele>
        <time>2008-09-21T07:49:01Z</time>
      </trkpt>
      <trkpt lat="45.96549" lon="4.68729">
        <ele>252.4833984</ele>
        <time>2008-09-21T07:49:10Z</time>
      </trkpt>
      <trkpt lat="45.96524" lon="4.68749">
        <ele>255.3673096</ele>
        <time>2008-09-21T07:49:21Z</time>
      </trkpt>
      <trkpt lat="45.96502" lon="4.68807">
        <ele>255.8480225</ele>
        <time>2008-09-21T07:49:34Z</time>
      </trkpt>
      <trkpt lat="45.96499" lon="4.68813">
        <ele>256.3287354</ele>
        <time>2008-09-21T07:49:35Z</time>
      </trkpt>
      <trkpt lat="45.96497" lon="4.68834">
        <ele>255.8480225</ele>
        <time>2008-09-21T07:49:38Z</time>
      </trkpt>
      <trkpt lat="45.9651" lon="4.68862">
        <ele>254.4060059</ele>
        <time>2008-09-21T07:49:42Z</time>
      </trkpt>
      <trkpt lat="45.96532" lon="4.68881">
        <ele>252.4833984</ele>
        <time>2008-09-21T07:49:45Z</time>
      </trkpt>
      <trkpt lat="45.96558" lon="4.689">
        <ele>249.1187744</ele>
        <time>2008-09-21T07:49:48Z</time>
      </trkpt>
      <trkpt lat="45.96576" lon="4.68915">
        <ele>247.1960449</ele>
        <time>2008-09-21T07:49:50Z</time>
      </trkpt>
      <trkpt lat="45.96602" lon="4.68942">
        <ele>243.3508301</ele>
        <time>2008-09-21T07:49:53Z</time>
      </trkpt>
      <trkpt lat="45.9661" lon="4.68952">
        <ele>243.831543</ele>
        <time>2008-09-21T07:49:54Z</time>
      </trkpt>
      <trkpt lat="45.96618" lon="4.68963">
        <ele>243.831543</ele>
        <time>2008-09-21T07:49:55Z</time>
      </trkpt>
      <trkpt lat="45.96636" lon="4.69003">
        <ele>248.1575928</ele>
        <time>2008-09-21T07:49:59Z</time>
      </trkpt>
      <trkpt lat="45.96647" lon="4.69023">
        <ele>251.5220947</ele>
        <time>2008-09-21T07:50:03Z</time>
      </trkpt>
      <trkpt lat="45.96649" lon="4.69026">
        <ele>251.5220947</ele>
        <time>2008-09-21T07:50:04Z</time>
      </trkpt>
      <trkpt lat="45.9666" lon="4.6904">
        <ele>253.925415</ele>
        <time>2008-09-21T07:50:09Z</time>
      </trkpt>
      <trkpt lat="45.96663" lon="4.69049">
        <ele>254.8865967</ele>
        <time>2008-09-21T07:50:11Z</time>
      </trkpt>
      <trkpt lat="45.96659" lon="4.69068">
        <ele>254.8865967</ele>
        <time>2008-09-21T07:50:14Z</time>
      </trkpt>
      <trkpt lat="45.96645" lon="4.69094">
        <ele>254.8865967</ele>
        <time>2008-09-21T07:50:19Z</time>
      </trkpt>
      <trkpt lat="45.96603" lon="4.69139">
        <ele>256.3287354</ele>
        <time>2008-09-21T07:50:31Z</time>
      </trkpt>
      <trkpt lat="45.96605" lon="4.69179">
        <ele>258.2513428</ele>
        <time>2008-09-21T07:50:39Z</time>
      </trkpt>
      <trkpt lat="45.96611" lon="4.69208">
        <ele>261.1352539</ele>
        <time>2008-09-21T07:50:47Z</time>
      </trkpt>
      <trkpt lat="45.96612" lon="4.69217">
        <ele>262.5771484</ele>
        <time>2008-09-21T07:50:50Z</time>
      </trkpt>
      <trkpt lat="45.96612" lon="4.69229">
        <ele>263.5385742</ele>
        <time>2008-09-21T07:50:54Z</time>
      </trkpt>
      <trkpt lat="45.96593" lon="4.69261">
        <ele>267.3839111</ele>
        <time>2008-09-21T07:51:07Z</time>
      </trkpt>
      <trkpt lat="45.96567" lon="4.69293">
        <ele>270.2677002</ele>
        <time>2008-09-21T07:51:23Z</time>
      </trkpt>
      <trkpt lat="45.96536" lon="4.69281">
        <ele>269.7871094</ele>
        <time>2008-09-21T07:51:32Z</time>
      </trkpt>
      <trkpt lat="45.96457" lon="4.69261">
        <ele>270.7484131</ele>
        <time>2008-09-21T07:51:52Z</time>
      </trkpt>
      <trkpt lat="45.96415" lon="4.69262">
        <ele>274.1130371</ele>
        <time>2008-09-21T07:52:04Z</time>
      </trkpt>
      <trkpt lat="45.96396" lon="4.69263">
        <ele>274.59375</ele>
        <time>2008-09-21T07:52:10Z</time>
      </trkpt>
      <trkpt lat="45.96391" lon="4.69277">
        <ele>275.5550537</ele>
        <time>2008-09-21T07:52:14Z</time>
      </trkpt>
      <trkpt lat="45.96387" lon="4.69292">
        <ele>276.9970703</ele>
        <time>2008-09-21T07:52:18Z</time>
      </trkpt>
      <trkpt lat="45.96376" lon="4.69329">
        <ele>280.3616943</ele>
        <time>2008-09-21T07:52:31Z</time>
      </trkpt>
      <trkpt lat="45.96372" lon="4.69342">
        <ele>282.2843018</ele>
        <time>2008-09-21T07:52:36Z</time>
      </trkpt>
      <trkpt lat="45.96365" lon="4.69353">
        <ele>285.1682129</ele>
        <time>2008-09-21T07:52:42Z</time>
      </trkpt>
      <trkpt lat="45.96355" lon="4.69386">
        <ele>288.532959</ele>
        <time>2008-09-21T07:52:56Z</time>
      </trkpt>
      <trkpt lat="45.96349" lon="4.69414">
        <ele>291.416748</ele>
        <time>2008-09-21T07:53:07Z</time>
      </trkpt>
      <trkpt lat="45.96343" lon="4.69452">
        <ele>294.7813721</ele>
        <time>2008-09-21T07:53:22Z</time>
      </trkpt>
      <trkpt lat="45.96342" lon="4.69456">
        <ele>295.7426758</ele>
        <time>2008-09-21T07:53:24Z</time>
      </trkpt>
      <trkpt lat="45.96333" lon="4.69496">
        <ele>299.1072998</ele>
        <time>2008-09-21T07:53:40Z</time>
      </trkpt>
      <trkpt lat="45.96333" lon="4.69504">
        <ele>299.5880127</ele>
        <time>2008-09-21T07:53:43Z</time>
      </trkpt>
      <trkpt lat="45.96341" lon="4.69508">
        <ele>300.5493164</ele>
        <time>2008-09-21T07:53:48Z</time>
      </trkpt>
      <trkpt lat="45.96351" lon="4.69511">
        <ele>300.5493164</ele>
        <time>2008-09-21T07:53:52Z</time>
      </trkpt>
      <trkpt lat="45.96352" lon="4.69524">
        <ele>300.5493164</ele>
        <time>2008-09-21T07:53:57Z</time>
      </trkpt>
      <trkpt lat="45.9635" lon="4.69535">
        <ele>301.991333</ele>
        <time>2008-09-21T07:54:01Z</time>
      </trkpt>
      <trkpt lat="45.96343" lon="4.69569">
        <ele>304.8752441</ele>
        <time>2008-09-21T07:54:15Z</time>
      </trkpt>
      <trkpt lat="45.96336" lon="4.69603">
        <ele>308.2398682</ele>
        <time>2008-09-21T07:54:27Z</time>
      </trkpt>
      <trkpt lat="45.96327" lon="4.69645">
        <ele>311.1237793</ele>
        <time>2008-09-21T07:54:42Z</time>
      </trkpt>
      <trkpt lat="45.96327" lon="4.69648">
        <ele>311.6044922</ele>
        <time>2008-09-21T07:54:43Z</time>
      </trkpt>
      <trkpt lat="45.96325" lon="4.69684">
        <ele>314.4884033</ele>
        <time>2008-09-21T07:54:56Z</time>
      </trkpt>
      <trkpt lat="45.96323" lon="4.69703">
        <ele>317.3724365</ele>
        <time>2008-09-21T07:55:03Z</time>
      </trkpt>
      <trkpt lat="45.96321" lon="4.69731">
        <ele>320.7370605</ele>
        <time>2008-09-21T07:55:15Z</time>
      </trkpt>
      <trkpt lat="45.96319" lon="4.69758">
        <ele>323.6209717</ele>
        <time>2008-09-21T07:55:28Z</time>
      </trkpt>
      <trkpt lat="45.96317" lon="4.69782">
        <ele>326.9855957</ele>
        <time>2008-09-21T07:55:39Z</time>
      </trkpt>
      <trkpt lat="45.96314" lon="4.69807">
        <ele>330.3502197</ele>
        <time>2008-09-21T07:55:51Z</time>
      </trkpt>
      <trkpt lat="45.96311" lon="4.6984">
        <ele>333.2341309</ele>
        <time>2008-09-21T07:56:08Z</time>
      </trkpt>
      <trkpt lat="45.9631" lon="4.69863">
        <ele>336.1181641</ele>
        <time>2008-09-21T07:56:19Z</time>
      </trkpt>
      <trkpt lat="45.96307" lon="4.69894">
        <ele>339.482666</ele>
        <time>2008-09-21T07:56:33Z</time>
      </trkpt>
      <trkpt lat="45.96307" lon="4.69924">
        <ele>341.4052734</ele>
        <time>2008-09-21T07:56:48Z</time>
      </trkpt>
      <trkpt lat="45.96313" lon="4.69925">
        <ele>342.3666992</ele>
        <time>2008-09-21T07:56:52Z</time>
      </trkpt>
      <trkpt lat="45.96316" lon="4.69935">
        <ele>343.3278809</ele>
        <time>2008-09-21T07:56:58Z</time>
      </trkpt>
      <trkpt lat="45.96319" lon="4.69955">
        <ele>347.1732178</ele>
        <time>2008-09-21T07:57:08Z</time>
      </trkpt>
      <trkpt lat="45.96319" lon="4.69958">
        <ele>347.6539307</ele>
        <time>2008-09-21T07:57:09Z</time>
      </trkpt>
      <trkpt lat="45.96318" lon="4.69972">
        <ele>348.1346436</ele>
        <time>2008-09-21T07:57:15Z</time>
      </trkpt>
      <trkpt lat="45.96328" lon="4.69982">
        <ele>349.0958252</ele>
        <time>2008-09-21T07:57:23Z</time>
      </trkpt>
      <trkpt lat="45.96372" lon="4.69967">
        <ele>349.5765381</ele>
        <time>2008-09-21T07:57:37Z</time>
      </trkpt>
      <trkpt lat="45.96398" lon="4.69994">
        <ele>352.4605713</ele>
        <time>2008-09-21T07:57:47Z</time>
      </trkpt>
      <trkpt lat="45.964" lon="4.69997">
        <ele>352.9411621</ele>
        <time>2008-09-21T07:57:48Z</time>
      </trkpt>
      <trkpt lat="45.96435" lon="4.7005">
        <ele>353.421875</ele>
        <time>2008-09-21T07:58:03Z</time>
      </trkpt>
      <trkpt lat="45.96431" lon="4.70111">
        <ele>354.8637695</ele>
        <time>2008-09-21T07:58:15Z</time>
      </trkpt>
      <trkpt lat="45.96384" lon="4.70128">
        <ele>354.3831787</ele>
        <time>2008-09-21T07:58:27Z</time>
      </trkpt>
      <trkpt lat="45.96322" lon="4.70149">
        <ele>351.4991455</ele>
        <time>2008-09-21T07:58:38Z</time>
      </trkpt>
      <trkpt lat="45.96305" lon="4.70155">
        <ele>348.1346436</ele>
        <time>2008-09-21T07:58:41Z</time>
      </trkpt>
      <trkpt lat="45.96289" lon="4.7016">
        <ele>346.692627</ele>
        <time>2008-09-21T07:58:43Z</time>
      </trkpt>
      <trkpt lat="45.96248" lon="4.70172">
        <ele>342.84729</ele>
        <time>2008-09-21T07:58:48Z</time>
      </trkpt>
      <trkpt lat="45.96225" lon="4.7018">
        <ele>341.4052734</ele>
        <time>2008-09-21T07:58:52Z</time>
      </trkpt>
      <trkpt lat="45.9623" lon="4.70216">
        <ele>340.4440918</ele>
        <time>2008-09-21T07:59:00Z</time>
      </trkpt>
      <trkpt lat="45.96222" lon="4.70241">
        <ele>339.0020752</ele>
        <time>2008-09-21T07:59:05Z</time>
      </trkpt>
      <trkpt lat="45.96209" lon="4.70279">
        <ele>334.6761475</ele>
        <time>2008-09-21T07:59:11Z</time>
      </trkpt>
      <trkpt lat="45.96208" lon="4.70286">
        <ele>334.1954346</ele>
        <time>2008-09-21T07:59:12Z</time>
      </trkpt>
      <trkpt lat="45.96201" lon="4.70314">
        <ele>329.388916</ele>
        <time>2008-09-21T07:59:17Z</time>
      </trkpt>
      <trkpt lat="45.962" lon="4.7032">
        <ele>327.9467773</ele>
        <time>2008-09-21T07:59:20Z</time>
      </trkpt>
      <trkpt lat="45.96199" lon="4.70322">
        <ele>328.4276123</ele>
        <time>2008-09-21T07:59:21Z</time>
      </trkpt>
      <trkpt lat="45.96205" lon="4.70341">
        <ele>327.9467773</ele>
        <time>2008-09-21T07:59:25Z</time>
      </trkpt>
      <trkpt lat="45.96279" lon="4.70458">
        <ele>324.1015625</ele>
        <time>2008-09-21T07:59:43Z</time>
      </trkpt>
      <trkpt lat="45.96335" lon="4.70532">
        <ele>320.7370605</ele>
        <time>2008-09-21T07:59:54Z</time>
      </trkpt>
      <trkpt lat="45.96348" lon="4.70547">
        <ele>319.7756348</ele>
        <time>2008-09-21T07:59:56Z</time>
      </trkpt>
      <trkpt lat="45.96372" lon="4.70577">
        <ele>318.3336182</ele>
        <time>2008-09-21T08:00:00Z</time>
      </trkpt>
      <trkpt lat="45.96381" lon="4.7059">
        <ele>317.8530273</ele>
        <time>2008-09-21T08:00:02Z</time>
      </trkpt>
      <trkpt lat="45.96369" lon="4.70621">
        <ele>314.0078125</ele>
        <time>2008-09-21T08:00:08Z</time>
      </trkpt>
      <trkpt lat="45.9635" lon="4.70651">
        <ele>307.7592773</ele>
        <time>2008-09-21T08:00:12Z</time>
      </trkpt>
      <trkpt lat="45.96346" lon="4.70658">
        <ele>307.2785645</ele>
        <time>2008-09-21T08:00:13Z</time>
      </trkpt>
      <trkpt lat="45.9634" lon="4.70694">
        <ele>302.4719238</ele>
        <time>2008-09-21T08:00:18Z</time>
      </trkpt>
      <trkpt lat="45.96341" lon="4.70704">
        <ele>301.5106201</ele>
        <time>2008-09-21T08:00:20Z</time>
      </trkpt>
      <trkpt lat="45.9634" lon="4.70728">
        <ele>297.1846924</ele>
        <time>2008-09-21T08:00:26Z</time>
      </trkpt>
      <trkpt lat="45.96336" lon="4.70742">
        <ele>295.7426758</ele>
        <time>2008-09-21T08:00:29Z</time>
      </trkpt>
      <trkpt lat="45.96336" lon="4.70748">
        <ele>294.7813721</ele>
        <time>2008-09-21T08:00:31Z</time>
      </trkpt>
      <trkpt lat="45.96328" lon="4.70754">
        <ele>293.8200684</ele>
        <time>2008-09-21T08:00:35Z</time>
      </trkpt>
      <trkpt lat="45.96316" lon="4.70751">
        <ele>293.3393555</ele>
        <time>2008-09-21T08:00:38Z</time>
      </trkpt>
      <trkpt lat="45.96281" lon="4.70754">
        <ele>291.8974609</ele>
        <time>2008-09-21T08:00:45Z</time>
      </trkpt>
      <trkpt lat="45.96266" lon="4.70758">
        <ele>289.4941406</ele>
        <time>2008-09-21T08:00:48Z</time>
      </trkpt>
      <trkpt lat="45.96264" lon="4.70766">
        <ele>288.532959</ele>
        <time>2008-09-21T08:00:50Z</time>
      </trkpt>
      <trkpt lat="45.96261" lon="4.70788">
        <ele>285.1682129</ele>
        <time>2008-09-21T08:00:53Z</time>
      </trkpt>
      <trkpt lat="45.96257" lon="4.70806">
        <ele>281.322998</ele>
        <time>2008-09-21T08:00:55Z</time>
      </trkpt>
      <trkpt lat="45.96253" lon="4.70831">
        <ele>276.9970703</ele>
        <time>2008-09-21T08:00:59Z</time>
      </trkpt>
      <trkpt lat="45.96253" lon="4.70836">
        <ele>276.9970703</ele>
        <time>2008-09-21T08:01:00Z</time>
      </trkpt>
      <trkpt lat="45.9626" lon="4.70858">
        <ele>274.59375</ele>
        <time>2008-09-21T08:01:04Z</time>
      </trkpt>
      <trkpt lat="45.9627" lon="4.70867">
        <ele>273.6324463</ele>
        <time>2008-09-21T08:01:06Z</time>
      </trkpt>
      <trkpt lat="45.96293" lon="4.70895">
        <ele>269.3065186</ele>
        <time>2008-09-21T08:01:11Z</time>
      </trkpt>
      <trkpt lat="45.96308" lon="4.70911">
        <ele>266.4224854</ele>
        <time>2008-09-21T08:01:14Z</time>
      </trkpt>
      <trkpt lat="45.96323" lon="4.70929">
        <ele>263.0578613</ele>
        <time>2008-09-21T08:01:17Z</time>
      </trkpt>
      <trkpt lat="45.96334" lon="4.70944">
        <ele>259.6933594</ele>
        <time>2008-09-21T08:01:19Z</time>
      </trkpt>
      <trkpt lat="45.96354" lon="4.70968">
        <ele>255.3673096</ele>
        <time>2008-09-21T08:01:22Z</time>
      </trkpt>
      <trkpt lat="45.96374" lon="4.70993">
        <ele>252.0028076</ele>
        <time>2008-09-21T08:01:25Z</time>
      </trkpt>
      <trkpt lat="45.96391" lon="4.71014">
        <ele>250.560791</ele>
        <time>2008-09-21T08:01:28Z</time>
      </trkpt>
      <trkpt lat="45.96395" lon="4.71035">
        <ele>248.1575928</ele>
        <time>2008-09-21T08:01:35Z</time>
      </trkpt>
      <trkpt lat="45.96394" lon="4.7104">
        <ele>247.1960449</ele>
        <time>2008-09-21T08:01:36Z</time>
      </trkpt>
      <trkpt lat="45.9639" lon="4.71052">
        <ele>245.2734375</ele>
        <time>2008-09-21T08:01:38Z</time>
      </trkpt>
      <trkpt lat="45.96378" lon="4.71075">
        <ele>240.9476318</ele>
        <time>2008-09-21T08:01:42Z</time>
      </trkpt>
      <trkpt lat="45.96375" lon="4.7108">
        <ele>240.9476318</ele>
        <time>2008-09-21T08:01:43Z</time>
      </trkpt>
      <trkpt lat="45.96347" lon="4.71096">
        <ele>236.1409912</ele>
        <time>2008-09-21T08:01:48Z</time>
      </trkpt>
      <trkpt lat="45.96325" lon="4.71109">
        <ele>232.7764893</ele>
        <time>2008-09-21T08:01:51Z</time>
      </trkpt>
      <trkpt lat="45.96318" lon="4.71113">
        <ele>232.7764893</ele>
        <time>2008-09-21T08:01:52Z</time>
      </trkpt>
      <trkpt lat="45.96301" lon="4.71129">
        <ele>228.9311523</ele>
        <time>2008-09-21T08:01:55Z</time>
      </trkpt>
      <trkpt lat="45.96287" lon="4.71156">
        <ele>223.6437988</ele>
        <time>2008-09-21T08:01:58Z</time>
      </trkpt>
      <trkpt lat="45.96272" lon="4.71172">
        <ele>221.7211914</ele>
        <time>2008-09-21T08:02:00Z</time>
      </trkpt>
      <trkpt lat="45.96226" lon="4.71189">
        <ele>215.9532471</ele>
        <time>2008-09-21T08:02:05Z</time>
      </trkpt>
      <trkpt lat="45.96105" lon="4.71188">
        <ele>212.588623</ele>
        <time>2008-09-21T08:02:19Z</time>
      </trkpt>
      <trkpt lat="45.9609" lon="4.71164">
        <ele>214.5112305</ele>
        <time>2008-09-21T08:02:25Z</time>
      </trkpt>
      <trkpt lat="45.96089" lon="4.7116">
        <ele>214.9919434</ele>
        <time>2008-09-21T08:02:26Z</time>
      </trkpt>
      <trkpt lat="45.96086" lon="4.71146">
        <ele>216.9146729</ele>
        <time>2008-09-21T08:02:29Z</time>
      </trkpt>
      <trkpt lat="45.96075" lon="4.71139">
        <ele>218.8372803</ele>
        <time>2008-09-21T08:02:32Z</time>
      </trkpt>
      <trkpt lat="45.96071" lon="4.71137">
        <ele>218.8372803</ele>
        <time>2008-09-21T08:02:33Z</time>
      </trkpt>
      <trkpt lat="45.96045" lon="4.71128">
        <ele>219.798584</ele>
        <time>2008-09-21T08:02:38Z</time>
      </trkpt>
      <trkpt lat="45.95963" lon="4.71126">
        <ele>218.3565674</ele>
        <time>2008-09-21T08:02:51Z</time>
      </trkpt>
      <trkpt lat="45.95922" lon="4.71114">
        <ele>217.3953857</ele>
        <time>2008-09-21T08:02:57Z</time>
      </trkpt>
      <trkpt lat="45.959" lon="4.7109">
        <ele>217.8759766</ele>
        <time>2008-09-21T08:03:01Z</time>
      </trkpt>
      <trkpt lat="45.95884" lon="4.71066">
        <ele>218.3565674</ele>
        <time>2008-09-21T08:03:05Z</time>
      </trkpt>
      <trkpt lat="45.95759" lon="4.70938">
        <ele>224.6052246</ele>
        <time>2008-09-21T08:03:34Z</time>
      </trkpt>
      <trkpt lat="45.95733" lon="4.70918">
        <ele>227.9697266</ele>
        <time>2008-09-21T08:03:44Z</time>
      </trkpt>
      <trkpt lat="45.95689" lon="4.70887">
        <ele>231.8149414</ele>
        <time>2008-09-21T08:04:02Z</time>
      </trkpt>
      <trkpt lat="45.95662" lon="4.70868">
        <ele>232.2957764</ele>
        <time>2008-09-21T08:04:12Z</time>
      </trkpt>
      <trkpt lat="45.95653" lon="4.7088">
        <ele>232.2957764</ele>
        <time>2008-09-21T08:04:20Z</time>
      </trkpt>
      <trkpt lat="45.95646" lon="4.70881">
        <ele>232.2957764</ele>
        <time>2008-09-21T08:04:24Z</time>
      </trkpt>
      <trkpt lat="45.95599" lon="4.70887">
        <ele>231.3343506</ele>
        <time>2008-09-21T08:04:37Z</time>
      </trkpt>
      <trkpt lat="45.95597" lon="4.70869">
        <ele>234.6990967</ele>
        <time>2008-09-21T08:04:46Z</time>
      </trkpt>
      <trkpt lat="45.95597" lon="4.70866">
        <ele>234.6990967</ele>
        <time>2008-09-21T08:04:47Z</time>
      </trkpt>
      <trkpt lat="45.956" lon="4.70846">
        <ele>238.0635986</ele>
        <time>2008-09-21T08:04:55Z</time>
      </trkpt>
      <trkpt lat="45.95592" lon="4.70842">
        <ele>238.0635986</ele>
        <time>2008-09-21T08:04:59Z</time>
      </trkpt>
      <trkpt lat="45.95533" lon="4.70817">
        <ele>238.5443115</ele>
        <time>2008-09-21T08:05:19Z</time>
      </trkpt>
      <trkpt lat="45.95465" lon="4.70788">
        <ele>239.9862061</ele>
        <time>2008-09-21T08:05:38Z</time>
      </trkpt>
      <trkpt lat="45.95416" lon="4.70767">
        <ele>242.8702393</ele>
        <time>2008-09-21T08:05:53Z</time>
      </trkpt>
      <trkpt lat="45.95388" lon="4.70756">
        <ele>246.2348633</ele>
        <time>2008-09-21T08:06:03Z</time>
      </trkpt>
      <trkpt lat="45.95338" lon="4.70735">
        <ele>249.5994873</ele>
        <time>2008-09-21T08:06:21Z</time>
      </trkpt>
      <trkpt lat="45.95336" lon="4.70734">
        <ele>250.0802002</ele>
        <time>2008-09-21T08:06:22Z</time>
      </trkpt>
      <trkpt lat="45.95285" lon="4.70713">
        <ele>253.4447021</ele>
        <time>2008-09-21T08:06:40Z</time>
      </trkpt>
      <trkpt lat="45.95268" lon="4.70706">
        <ele>254.8865967</ele>
        <time>2008-09-21T08:06:46Z</time>
      </trkpt>
      <trkpt lat="45.95213" lon="4.70685">
        <ele>258.2513428</ele>
        <time>2008-09-21T08:07:05Z</time>
      </trkpt>
      <trkpt lat="45.95139" lon="4.70654">
        <ele>259.6933594</ele>
        <time>2008-09-21T08:07:27Z</time>
      </trkpt>
      <trkpt lat="45.95123" lon="4.70641">
        <ele>259.2126465</ele>
        <time>2008-09-21T08:07:32Z</time>
      </trkpt>
      <trkpt lat="45.95082" lon="4.70621">
        <ele>256.3287354</ele>
        <time>2008-09-21T08:07:40Z</time>
      </trkpt>
      <trkpt lat="45.95066" lon="4.70614">
        <ele>255.3673096</ele>
        <time>2008-09-21T08:07:43Z</time>
      </trkpt>
      <trkpt lat="45.95018" lon="4.70589">
        <ele>258.2513428</ele>
        <time>2008-09-21T08:07:58Z</time>
      </trkpt>
      <trkpt lat="45.95" lon="4.70581">
        <ele>261.1352539</ele>
        <time>2008-09-21T08:08:06Z</time>
      </trkpt>
      <trkpt lat="45.94959" lon="4.70554">
        <ele>263.0578613</ele>
        <time>2008-09-21T08:08:26Z</time>
      </trkpt>
      <trkpt lat="45.94932" lon="4.70544">
        <ele>265.9418945</ele>
        <time>2008-09-21T08:08:40Z</time>
      </trkpt>
      <trkpt lat="45.94907" lon="4.70545">
        <ele>267.3839111</ele>
        <time>2008-09-21T08:08:52Z</time>
      </trkpt>
      <trkpt lat="45.94876" lon="4.70592">
        <ele>261.6159668</ele>
        <time>2008-09-21T08:09:12Z</time>
      </trkpt>
      <trkpt lat="45.94871" lon="4.70636">
        <ele>249.5994873</ele>
        <time>2008-09-21T08:09:37Z</time>
      </trkpt>
      <trkpt lat="45.94851" lon="4.7068">
        <ele>242.3896484</ele>
        <time>2008-09-21T08:09:52Z</time>
      </trkpt>
      <trkpt lat="45.9483" lon="4.70691">
        <ele>239.0249023</ele>
        <time>2008-09-21T08:09:59Z</time>
      </trkpt>
      <trkpt lat="45.94815" lon="4.70694">
        <ele>236.1409912</ele>
        <time>2008-09-21T08:10:03Z</time>
      </trkpt>
      <trkpt lat="45.9473" lon="4.70688">
        <ele>222.6824951</ele>
        <time>2008-09-21T08:10:24Z</time>
      </trkpt>
      <trkpt lat="45.94724" lon="4.70697">
        <ele>221.7211914</ele>
        <time>2008-09-21T08:10:26Z</time>
      </trkpt>
      <trkpt lat="45.94675" lon="4.70761">
        <ele>226.527832</ele>
        <time>2008-09-21T08:10:40Z</time>
      </trkpt>
      <trkpt lat="45.94673" lon="4.70764">
        <ele>226.527832</ele>
        <time>2008-09-21T08:10:41Z</time>
      </trkpt>
      <trkpt lat="45.94639" lon="4.70799">
        <ele>228.4504395</ele>
        <time>2008-09-21T08:10:56Z</time>
      </trkpt>
      <trkpt lat="45.9461" lon="4.70803">
        <ele>228.9311523</ele>
        <time>2008-09-21T08:11:06Z</time>
      </trkpt>
      <trkpt lat="45.94589" lon="4.70823">
        <ele>224.6052246</ele>
        <time>2008-09-21T08:11:10Z</time>
      </trkpt>
      <trkpt lat="45.94574" lon="4.70836">
        <ele>221.2406006</ele>
        <time>2008-09-21T08:11:12Z</time>
      </trkpt>
      <trkpt lat="45.94558" lon="4.70848">
        <ele>220.2791748</ele>
        <time>2008-09-21T08:11:14Z</time>
      </trkpt>
      <trkpt lat="45.94521" lon="4.70863">
        <ele>222.2017822</ele>
        <time>2008-09-21T08:11:19Z</time>
      </trkpt>
      <trkpt lat="45.94496" lon="4.70887">
        <ele>223.6437988</ele>
        <time>2008-09-21T08:11:24Z</time>
      </trkpt>
      <trkpt lat="45.9448" lon="4.70913">
        <ele>224.1245117</ele>
        <time>2008-09-21T08:11:29Z</time>
      </trkpt>
      <trkpt lat="45.9446" lon="4.7093">
        <ele>227.0085449</ele>
        <time>2008-09-21T08:11:34Z</time>
      </trkpt>
      <trkpt lat="45.94402" lon="4.70966">
        <ele>229.4117432</ele>
        <time>2008-09-21T08:11:50Z</time>
      </trkpt>
      <trkpt lat="45.94366" lon="4.70943">
        <ele>232.7764893</ele>
        <time>2008-09-21T08:12:02Z</time>
      </trkpt>
      <trkpt lat="45.94324" lon="4.70925">
        <ele>235.1796875</ele>
        <time>2008-09-21T08:12:18Z</time>
      </trkpt>
      <trkpt lat="45.94318" lon="4.70951">
        <ele>234.6990967</ele>
        <time>2008-09-21T08:12:23Z</time>
      </trkpt>
      <trkpt lat="45.94313" lon="4.70964">
        <ele>233.7376709</ele>
        <time>2008-09-21T08:12:25Z</time>
      </trkpt>
      <trkpt lat="45.94306" lon="4.70978">
        <ele>232.2957764</ele>
        <time>2008-09-21T08:12:27Z</time>
      </trkpt>
      <trkpt lat="45.94281" lon="4.71013">
        <ele>225.5665283</ele>
        <time>2008-09-21T08:12:31Z</time>
      </trkpt>
      <trkpt lat="45.94258" lon="4.7104">
        <ele>222.6824951</ele>
        <time>2008-09-21T08:12:34Z</time>
      </trkpt>
      <trkpt lat="45.94234" lon="4.71056">
        <ele>217.8759766</ele>
        <time>2008-09-21T08:12:37Z</time>
      </trkpt>
      <trkpt lat="45.94225" lon="4.71062">
        <ele>215.4726563</ele>
        <time>2008-09-21T08:12:38Z</time>
      </trkpt>
      <trkpt lat="45.94188" lon="4.71101">
        <ele>208.2628174</ele>
        <time>2008-09-21T08:12:43Z</time>
      </trkpt>
      <trkpt lat="45.9418" lon="4.71105">
        <ele>207.7821045</ele>
        <time>2008-09-21T08:12:44Z</time>
      </trkpt>
      <trkpt lat="45.94157" lon="4.71112">
        <ele>203.9368896</ele>
        <time>2008-09-21T08:12:47Z</time>
      </trkpt>
      <trkpt lat="45.9415" lon="4.71114">
        <ele>203.4561768</ele>
        <time>2008-09-21T08:12:48Z</time>
      </trkpt>
      <trkpt lat="45.94142" lon="4.71148">
        <ele>199.130127</ele>
        <time>2008-09-21T08:12:53Z</time>
      </trkpt>
      <trkpt lat="45.94116" lon="4.71161">
        <ele>196.2463379</ele>
        <time>2008-09-21T08:12:57Z</time>
      </trkpt>
      <trkpt lat="45.94089" lon="4.71161">
        <ele>192.8817139</ele>
        <time>2008-09-21T08:13:00Z</time>
      </trkpt>
      <trkpt lat="45.94052" lon="4.71161">
        <ele>189.036377</ele>
        <time>2008-09-21T08:13:04Z</time>
      </trkpt>
      <trkpt lat="45.94043" lon="4.71161">
        <ele>189.036377</ele>
        <time>2008-09-21T08:13:05Z</time>
      </trkpt>
      <trkpt lat="45.94006" lon="4.71163">
        <ele>188.5557861</ele>
        <time>2008-09-21T08:13:09Z</time>
      </trkpt>
      <trkpt lat="45.93985" lon="4.71217">
        <ele>186.1524658</ele>
        <time>2008-09-21T08:13:16Z</time>
      </trkpt>
      <trkpt lat="45.93972" lon="4.71255">
        <ele>181.826416</ele>
        <time>2008-09-21T08:13:20Z</time>
      </trkpt>
      <trkpt lat="45.93968" lon="4.71264">
        <ele>181.826416</ele>
        <time>2008-09-21T08:13:21Z</time>
      </trkpt>
      <trkpt lat="45.93969" lon="4.71298">
        <ele>179.9038086</ele>
        <time>2008-09-21T08:13:24Z</time>
      </trkpt>
      <trkpt lat="45.93972" lon="4.71332">
        <ele>177.9812012</ele>
        <time>2008-09-21T08:13:27Z</time>
      </trkpt>
      <trkpt lat="45.93954" lon="4.71465">
        <ele>177.0200195</ele>
        <time>2008-09-21T08:13:39Z</time>
      </trkpt>
      <trkpt lat="45.93968" lon="4.71478">
        <ele>177.0200195</ele>
        <time>2008-09-21T08:13:43Z</time>
      </trkpt>
      <trkpt lat="45.9403" lon="4.7148">
        <ele>176.5393066</ele>
        <time>2008-09-21T08:13:53Z</time>
      </trkpt>
      <trkpt lat="45.94039" lon="4.7152">
        <ele>176.0585938</ele>
        <time>2008-09-21T08:14:00Z</time>
      </trkpt>
      <trkpt lat="45.94038" lon="4.71634">
        <ele>175.09729</ele>
        <time>2008-09-21T08:14:14Z</time>
      </trkpt>
      <trkpt lat="45.94016" lon="4.71653">
        <ele>175.09729</ele>
        <time>2008-09-21T08:14:21Z</time>
      </trkpt>
      <trkpt lat="45.94008" lon="4.71658">
        <ele>175.09729</ele>
        <time>2008-09-21T08:14:23Z</time>
      </trkpt>
      <trkpt lat="45.94007" lon="4.71698">
        <ele>174.6165771</ele>
        <time>2008-09-21T08:14:30Z</time>
      </trkpt>
      <trkpt lat="45.94019" lon="4.71725">
        <ele>174.1358643</ele>
        <time>2008-09-21T08:14:35Z</time>
      </trkpt>
      <trkpt lat="45.94036" lon="4.71738">
        <ele>173.6552734</ele>
        <time>2008-09-21T08:14:39Z</time>
      </trkpt>
      <trkpt lat="45.94075" lon="4.71825">
        <ele>170.7713623</ele>
        <time>2008-09-21T08:14:50Z</time>
      </trkpt>
      <trkpt lat="45.94111" lon="4.71914">
        <ele>171.732666</ele>
        <time>2008-09-21T08:15:01Z</time>
      </trkpt>
      <trkpt lat="45.94113" lon="4.71934">
        <ele>173.6552734</ele>
        <time>2008-09-21T08:15:04Z</time>
      </trkpt>
      <trkpt lat="45.94114" lon="4.71947">
        <ele>173.6552734</ele>
        <time>2008-09-21T08:15:06Z</time>
      </trkpt>
      <trkpt lat="45.94129" lon="4.71968">
        <ele>174.1358643</ele>
        <time>2008-09-21T08:15:11Z</time>
      </trkpt>
      <trkpt lat="45.94145" lon="4.71988">
        <ele>174.6165771</ele>
        <time>2008-09-21T08:15:16Z</time>
      </trkpt>
      <trkpt lat="45.94161" lon="4.72023">
        <ele>177.5006104</ele>
        <time>2008-09-21T08:15:23Z</time>
      </trkpt>
      <trkpt lat="45.94211" lon="4.72132">
        <ele>176.5393066</ele>
        <time>2008-09-21T08:15:41Z</time>
      </trkpt>
      <trkpt lat="45.94236" lon="4.72188">
        <ele>173.6552734</ele>
        <time>2008-09-21T08:15:47Z</time>
      </trkpt>
      <trkpt lat="45.94303" lon="4.72339">
        <ele>172.6939697</ele>
        <time>2008-09-21T08:16:04Z</time>
      </trkpt>
      <trkpt lat="45.94373" lon="4.72493">
        <ele>172.6939697</ele>
        <time>2008-09-21T08:16:22Z</time>
      </trkpt>
      <trkpt lat="45.94396" lon="4.72556">
        <ele>173.1746826</ele>
        <time>2008-09-21T08:16:29Z</time>
      </trkpt>
      <trkpt lat="45.94402" lon="4.72609">
        <ele>173.1746826</ele>
        <time>2008-09-21T08:16:35Z</time>
      </trkpt>
      <trkpt lat="45.94399" lon="4.72648">
        <ele>173.1746826</ele>
        <time>2008-09-21T08:16:41Z</time>
      </trkpt>
      <trkpt lat="45.944" lon="4.72675">
        <ele>170.2906494</ele>
        <time>2008-09-21T08:16:45Z</time>
      </trkpt>
      <trkpt lat="45.94405" lon="4.72723">
        <ele>169.8100586</ele>
        <time>2008-09-21T08:16:50Z</time>
      </trkpt>
      <trkpt lat="45.94395" lon="4.72762">
        <ele>169.8100586</ele>
        <time>2008-09-21T08:16:55Z</time>
      </trkpt>
      <trkpt lat="45.94281" lon="4.72848">
        <ele>169.3294678</ele>
        <time>2008-09-21T08:17:15Z</time>
      </trkpt>
      <trkpt lat="45.94245" lon="4.72869">
        <ele>168.8487549</ele>
        <time>2008-09-21T08:17:21Z</time>
      </trkpt>
      <trkpt lat="45.94233" lon="4.72874">
        <ele>168.8487549</ele>
        <time>2008-09-21T08:17:23Z</time>
      </trkpt>
      <trkpt lat="45.94194" lon="4.72871">
        <ele>169.3294678</ele>
        <time>2008-09-21T08:17:31Z</time>
      </trkpt>
      <trkpt lat="45.94191" lon="4.72866">
        <ele>170.2906494</ele>
        <time>2008-09-21T08:17:32Z</time>
      </trkpt>
      <trkpt lat="45.94158" lon="4.72812">
        <ele>169.3294678</ele>
        <time>2008-09-21T08:17:42Z</time>
      </trkpt>
      <trkpt lat="45.94142" lon="4.72801">
        <ele>168.8487549</ele>
        <time>2008-09-21T08:17:45Z</time>
      </trkpt>
      <trkpt lat="45.94128" lon="4.7279">
        <ele>170.2906494</ele>
        <time>2008-09-21T08:17:48Z</time>
      </trkpt>
      <trkpt lat="45.94016" lon="4.72688">
        <ele>170.2906494</ele>
        <time>2008-09-21T08:18:13Z</time>
      </trkpt>
      <trkpt lat="45.93946" lon="4.72617">
        <ele>170.2906494</ele>
        <time>2008-09-21T08:18:28Z</time>
      </trkpt>
      <trkpt lat="45.93912" lon="4.72604">
        <ele>169.3294678</ele>
        <time>2008-09-21T08:18:34Z</time>
      </trkpt>
      <trkpt lat="45.93866" lon="4.72561">
        <ele>169.3294678</ele>
        <time>2008-09-21T08:18:44Z</time>
      </trkpt>
      <trkpt lat="45.9385" lon="4.72537">
        <ele>169.3294678</ele>
        <time>2008-09-21T08:18:48Z</time>
      </trkpt>
      <trkpt lat="45.93779" lon="4.72473">
        <ele>169.8100586</ele>
        <time>2008-09-21T08:19:04Z</time>
      </trkpt>
      <trkpt lat="45.93696" lon="4.72375">
        <ele>171.2520752</ele>
        <time>2008-09-21T08:19:24Z</time>
      </trkpt>
      <trkpt lat="45.93545" lon="4.7221">
        <ele>174.1358643</ele>
        <time>2008-09-21T08:20:08Z</time>
      </trkpt>
      <trkpt lat="45.93537" lon="4.72214">
        <ele>174.6165771</ele>
        <time>2008-09-21T08:20:11Z</time>
      </trkpt>
      <trkpt lat="45.93509" lon="4.72298">
        <ele>175.09729</ele>
        <time>2008-09-21T08:20:26Z</time>
      </trkpt>
      <trkpt lat="45.93508" lon="4.72313">
        <ele>173.6552734</ele>
        <time>2008-09-21T08:20:29Z</time>
      </trkpt>
      <trkpt lat="45.93529" lon="4.7231">
        <ele>171.2520752</ele>
        <time>2008-09-21T08:20:36Z</time>
      </trkpt>
      <trkpt lat="45.93544" lon="4.72313">
        <ele>171.2520752</ele>
        <time>2008-09-21T08:20:39Z</time>
      </trkpt>
      <trkpt lat="45.93557" lon="4.72319">
        <ele>170.2906494</ele>
        <time>2008-09-21T08:20:42Z</time>
      </trkpt>
      <trkpt lat="45.93634" lon="4.72395">
        <ele>170.2906494</ele>
        <time>2008-09-21T08:21:02Z</time>
      </trkpt>
      <trkpt lat="45.93664" lon="4.72441">
        <ele>172.2132568</ele>
        <time>2008-09-21T08:21:14Z</time>
      </trkpt>
      <trkpt lat="45.937" lon="4.72481">
        <ele>171.732666</ele>
        <time>2008-09-21T08:21:24Z</time>
      </trkpt>
      <trkpt lat="45.93807" lon="4.72585">
        <ele>170.2906494</ele>
        <time>2008-09-21T08:21:46Z</time>
      </trkpt>
      <trkpt lat="45.93801" lon="4.72624">
        <ele>170.7713623</ele>
        <time>2008-09-21T08:21:52Z</time>
      </trkpt>
      <trkpt lat="45.93716" lon="4.72723">
        <ele>170.7713623</ele>
        <time>2008-09-21T08:22:08Z</time>
      </trkpt>
      <trkpt lat="45.93662" lon="4.72773">
        <ele>172.6939697</ele>
        <time>2008-09-21T08:22:18Z</time>
      </trkpt>
      <trkpt lat="45.93556" lon="4.72857">
        <ele>170.2906494</ele>
        <time>2008-09-21T08:22:35Z</time>
      </trkpt>
      <trkpt lat="45.93503" lon="4.72921">
        <ele>169.8100586</ele>
        <time>2008-09-21T08:22:45Z</time>
      </trkpt>
      <trkpt lat="45.93491" lon="4.72954">
        <ele>170.7713623</ele>
        <time>2008-09-21T08:22:49Z</time>
      </trkpt>
      <trkpt lat="45.93481" lon="4.73">
        <ele>169.8100586</ele>
        <time>2008-09-21T08:22:54Z</time>
      </trkpt>
      <trkpt lat="45.93481" lon="4.73147">
        <ele>169.8100586</ele>
        <time>2008-09-21T08:23:09Z</time>
      </trkpt>
      <trkpt lat="45.93501" lon="4.73212">
        <ele>170.2906494</ele>
        <time>2008-09-21T08:23:17Z</time>
      </trkpt>
      <trkpt lat="45.93523" lon="4.73339">
        <ele>170.7713623</ele>
        <time>2008-09-21T08:23:31Z</time>
      </trkpt>
      <trkpt lat="45.93563" lon="4.73529">
        <ele>170.2906494</ele>
        <time>2008-09-21T08:23:52Z</time>
      </trkpt>
      <trkpt lat="45.9357" lon="4.73556">
        <ele>170.2906494</ele>
        <time>2008-09-21T08:23:55Z</time>
      </trkpt>
      <trkpt lat="45.93583" lon="4.73691">
        <ele>170.2906494</ele>
        <time>2008-09-21T08:24:09Z</time>
      </trkpt>
      <trkpt lat="45.93567" lon="4.73732">
        <ele>170.2906494</ele>
        <time>2008-09-21T08:24:14Z</time>
      </trkpt>
      <trkpt lat="45.93457" lon="4.73825">
        <ele>169.3294678</ele>
        <time>2008-09-21T08:24:32Z</time>
      </trkpt>
      <trkpt lat="45.93349" lon="4.739">
        <ele>170.2906494</ele>
        <time>2008-09-21T08:24:50Z</time>
      </trkpt>
      <trkpt lat="45.93271" lon="4.74044">
        <ele>169.3294678</ele>
        <time>2008-09-21T08:25:08Z</time>
      </trkpt>
      <trkpt lat="45.93237" lon="4.74108">
        <ele>169.3294678</ele>
        <time>2008-09-21T08:25:16Z</time>
      </trkpt>
      <trkpt lat="45.9321" lon="4.74104">
        <ele>170.2906494</ele>
        <time>2008-09-21T08:25:21Z</time>
      </trkpt>
      <trkpt lat="45.93123" lon="4.74028">
        <ele>171.2520752</ele>
        <time>2008-09-21T08:25:38Z</time>
      </trkpt>
      <trkpt lat="45.93082" lon="4.74016">
        <ele>170.7713623</ele>
        <time>2008-09-21T08:25:45Z</time>
      </trkpt>
      <trkpt lat="45.93071" lon="4.74046">
        <ele>170.2906494</ele>
        <time>2008-09-21T08:25:51Z</time>
      </trkpt>
      <trkpt lat="45.93072" lon="4.74054">
        <ele>170.2906494</ele>
        <time>2008-09-21T08:25:52Z</time>
      </trkpt>
      <trkpt lat="45.93095" lon="4.74202">
        <ele>170.7713623</ele>
        <time>2008-09-21T08:26:09Z</time>
      </trkpt>
      <trkpt lat="45.93097" lon="4.74218">
        <ele>170.7713623</ele>
        <time>2008-09-21T08:26:11Z</time>
      </trkpt>
      <trkpt lat="45.9311" lon="4.74258">
        <ele>170.2906494</ele>
        <time>2008-09-21T08:26:16Z</time>
      </trkpt>
      <trkpt lat="45.9314" lon="4.74383">
        <ele>170.2906494</ele>
        <time>2008-09-21T08:26:31Z</time>
      </trkpt>
      <trkpt lat="45.93139" lon="4.74453">
        <ele>169.8100586</ele>
        <time>2008-09-21T08:26:39Z</time>
      </trkpt>
      <trkpt lat="45.93147" lon="4.74487">
        <ele>170.2906494</ele>
        <time>2008-09-21T08:26:43Z</time>
      </trkpt>
      <trkpt lat="45.93161" lon="4.74517">
        <ele>169.3294678</ele>
        <time>2008-09-21T08:26:47Z</time>
      </trkpt>
      <trkpt lat="45.93198" lon="4.74588">
        <ele>169.8100586</ele>
        <time>2008-09-21T08:26:57Z</time>
      </trkpt>
      <trkpt lat="45.93223" lon="4.74615">
        <ele>169.3294678</ele>
        <time>2008-09-21T08:27:02Z</time>
      </trkpt>
      <trkpt lat="45.93235" lon="4.74647">
        <ele>169.3294678</ele>
        <time>2008-09-21T08:27:06Z</time>
      </trkpt>
      <trkpt lat="45.93269" lon="4.74827">
        <ele>169.3294678</ele>
        <time>2008-09-21T08:27:26Z</time>
      </trkpt>
      <trkpt lat="45.93283" lon="4.74921">
        <ele>168.8487549</ele>
        <time>2008-09-21T08:27:37Z</time>
      </trkpt>
      <trkpt lat="45.93309" lon="4.7495">
        <ele>169.3294678</ele>
        <time>2008-09-21T08:27:43Z</time>
      </trkpt>
      <trkpt lat="45.93367" lon="4.7496">
        <ele>168.368042</ele>
        <time>2008-09-21T08:27:53Z</time>
      </trkpt>
      <trkpt lat="45.93378" lon="4.75001">
        <ele>169.8100586</ele>
        <time>2008-09-21T08:27:59Z</time>
      </trkpt>
      <trkpt lat="45.93361" lon="4.7517">
        <ele>169.3294678</ele>
        <time>2008-09-21T08:28:17Z</time>
      </trkpt>
      <trkpt lat="45.93332" lon="4.75323">
        <ele>170.2906494</ele>
        <time>2008-09-21T08:28:34Z</time>
      </trkpt>
      <trkpt lat="45.9323" lon="4.75712">
        <ele>169.8100586</ele>
        <time>2008-09-21T08:29:18Z</time>
      </trkpt>
      <trkpt lat="45.93239" lon="4.75872">
        <ele>169.3294678</ele>
        <time>2008-09-21T08:29:35Z</time>
      </trkpt>
      <trkpt lat="45.93242" lon="4.76079">
        <ele>169.8100586</ele>
        <time>2008-09-21T08:29:57Z</time>
      </trkpt>
      <trkpt lat="45.93228" lon="4.7626">
        <ele>169.8100586</ele>
        <time>2008-09-21T08:30:16Z</time>
      </trkpt>
      <trkpt lat="45.93225" lon="4.76278">
        <ele>169.3294678</ele>
        <time>2008-09-21T08:30:18Z</time>
      </trkpt>
      <trkpt lat="45.93224" lon="4.76373">
        <ele>169.3294678</ele>
        <time>2008-09-21T08:30:31Z</time>
      </trkpt>
      <trkpt lat="45.93232" lon="4.7638">
        <ele>169.3294678</ele>
        <time>2008-09-21T08:30:33Z</time>
      </trkpt>
      <trkpt lat="45.93355" lon="4.76322">
        <ele>168.8487549</ele>
        <time>2008-09-21T08:30:39Z</time>
      </trkpt>
      <trkpt lat="45.93354" lon="4.76334">
        <ele>168.8487549</ele>
        <time>2008-09-21T08:30:41Z</time>
      </trkpt>
      <trkpt lat="45.93426" lon="4.76457">
        <ele>168.8487549</ele>
        <time>2008-09-21T08:31:02Z</time>
      </trkpt>
      <trkpt lat="45.93524" lon="4.76584">
        <ele>169.3294678</ele>
        <time>2008-09-21T08:31:26Z</time>
      </trkpt>
      <trkpt lat="45.93625" lon="4.76733">
        <ele>169.8100586</ele>
        <time>2008-09-21T08:31:50Z</time>
      </trkpt>
      <trkpt lat="45.93712" lon="4.7688">
        <ele>169.8100586</ele>
        <time>2008-09-21T08:32:12Z</time>
      </trkpt>
      <trkpt lat="45.93781" lon="4.77027">
        <ele>170.2906494</ele>
        <time>2008-09-21T08:32:33Z</time>
      </trkpt>
      <trkpt lat="45.93821" lon="4.77164">
        <ele>172.2132568</ele>
        <time>2008-09-21T08:32:51Z</time>
      </trkpt>
      <trkpt lat="45.93818" lon="4.77193">
        <ele>172.2132568</ele>
        <time>2008-09-21T08:32:55Z</time>
      </trkpt>
      <trkpt lat="45.93817" lon="4.77226">
        <ele>172.6939697</ele>
        <time>2008-09-21T08:33:00Z</time>
      </trkpt>
      <trkpt lat="45.93852" lon="4.7723">
        <ele>175.09729</ele>
        <time>2008-09-21T08:33:12Z</time>
      </trkpt>
      <trkpt lat="45.93916" lon="4.77241">
        <ele>177.9812012</ele>
        <time>2008-09-21T08:33:27Z</time>
      </trkpt>
      <trkpt lat="45.94004" lon="4.77259">
        <ele>175.09729</ele>
        <time>2008-09-21T08:33:44Z</time>
      </trkpt>
      <trkpt lat="45.94014" lon="4.77262">
        <ele>174.6165771</ele>
        <time>2008-09-21T08:33:46Z</time>
      </trkpt>
      <trkpt lat="45.94018" lon="4.77274">
        <ele>173.1746826</ele>
        <time>2008-09-21T08:33:51Z</time>
      </trkpt>
      <trkpt lat="45.94017" lon="4.77286">
        <ele>172.6939697</ele>
        <time>2008-09-21T08:33:54Z</time>
      </trkpt>
      <trkpt lat="45.94008" lon="4.77398">
        <ele>171.732666</ele>
        <time>2008-09-21T08:34:08Z</time>
      </trkpt>
      <trkpt lat="45.93981" lon="4.77571">
        <ele>172.2132568</ele>
        <time>2008-09-21T08:34:27Z</time>
      </trkpt>
      <trkpt lat="45.93946" lon="4.77715">
        <ele>171.732666</ele>
        <time>2008-09-21T08:34:44Z</time>
      </trkpt>
      <trkpt lat="45.93896" lon="4.77843">
        <ele>173.1746826</ele>
        <time>2008-09-21T08:35:01Z</time>
      </trkpt>
      <trkpt lat="45.93868" lon="4.77933">
        <ele>175.5778809</ele>
        <time>2008-09-21T08:35:15Z</time>
      </trkpt>
      <trkpt lat="45.93863" lon="4.77951">
        <ele>176.0585938</ele>
        <time>2008-09-21T08:35:18Z</time>
      </trkpt>
      <trkpt lat="45.93855" lon="4.77977">
        <ele>177.5006104</ele>
        <time>2008-09-21T08:35:23Z</time>
      </trkpt>
      <trkpt lat="45.9386" lon="4.7799">
        <ele>177.9812012</ele>
        <time>2008-09-21T08:35:30Z</time>
      </trkpt>
      <trkpt lat="45.93855" lon="4.77998">
        <ele>177.9812012</ele>
        <time>2008-09-21T08:35:35Z</time>
      </trkpt>
      <trkpt lat="45.93844" lon="4.78002">
        <ele>177.5006104</ele>
        <time>2008-09-21T08:35:38Z</time>
      </trkpt>
      <trkpt lat="45.93846" lon="4.78038">
        <ele>177.0200195</ele>
        <time>2008-09-21T08:35:46Z</time>
      </trkpt>
      <trkpt lat="45.93857" lon="4.78037">
        <ele>178.4619141</ele>
        <time>2008-09-21T08:35:49Z</time>
      </trkpt>
      <trkpt lat="45.93884" lon="4.78021">
        <ele>179.9038086</ele>
        <time>2008-09-21T08:35:56Z</time>
      </trkpt>
      <trkpt lat="45.93889" lon="4.78015">
        <ele>179.9038086</ele>
        <time>2008-09-21T08:35:58Z</time>
      </trkpt>
      <trkpt lat="45.93916" lon="4.78041">
        <ele>184.2298584</ele>
        <time>2008-09-21T08:36:10Z</time>
      </trkpt>
      <trkpt lat="45.93919" lon="4.78042">
        <ele>184.2298584</ele>
        <time>2008-09-21T08:36:11Z</time>
      </trkpt>
      <trkpt lat="45.93951" lon="4.78044">
        <ele>188.0750732</ele>
        <time>2008-09-21T08:36:25Z</time>
      </trkpt>
      <trkpt lat="45.93981" lon="4.78005">
        <ele>191.4395752</ele>
        <time>2008-09-21T08:36:40Z</time>
      </trkpt>
      <trkpt lat="45.94007" lon="4.7796">
        <ele>192.8817139</ele>
        <time>2008-09-21T08:36:53Z</time>
      </trkpt>
      <trkpt lat="45.9403" lon="4.7798">
        <ele>195.765625</ele>
        <time>2008-09-21T08:37:03Z</time>
      </trkpt>
      <trkpt lat="45.94031" lon="4.78018">
        <ele>196.7269287</ele>
        <time>2008-09-21T08:37:21Z</time>
      </trkpt>
    </trkseg>
  </trk>
</gpx>